Observation data for Vega on 04/08/2021      Previous  Date  Next       Current Mesonet Observations  Soil Data  Daily Summary Page  Observations in Plain Language
KVE1 080500Z 07007KT 05/M01 A2995 RMK A01 T00471006  RH  069%=      5-min Rain = 0
KVE1 080501Z 07007KT 05/M01 A2995 RMK A01 T00461006  RH  069%=      5-min Rain = 0
KVE1 080502Z 07007KT 04/M01 A2995 RMK A01 T00441008  RH  069%=      5-min Rain = 0
KVE1 080503Z 07007KT 04/M01 A2995 RMK A01 T00421008  RH  070%=      5-min Rain = 0
KVE1 080504Z 07007KT 04/M01 A2995 RMK A01 T00411008  RH  071%=      5-min Rain = 0
KVE1 080505Z 07007KT 04/M01 A2995 RMK A01 T00411008  RH  070%=      5-min Rain = 0
KVE1 080506Z 08007KT 04/M01 A2995 RMK A01 T00431008  RH  070%=      5-min Rain = 0
KVE1 080507Z 07007KT 04/M01 A2995 RMK A01 T00441008  RH  069%=      5-min Rain = 0
KVE1 080508Z 07007KT 04/M01 A2995 RMK A01 T00441008  RH  069%=      5-min Rain = 0
KVE1 080509Z 07007KT 04/M01 A2995 RMK A01 T00431008  RH  070%=      5-min Rain = 0
KVE1 080510Z 07007KT 04/M01 A2996 RMK A01 T00411009  RH  070%=      5-min Rain = 0
KVE1 080511Z 07007KT 04/M01 A2996 RMK A01 T00391009  RH  071%=      5-min Rain = 0
KVE1 080512Z 07007KT 04/M01 A2996 RMK A01 T00381009  RH  071%=      5-min Rain = 0
KVE1 080513Z 07007KT 04/M01 A2996 RMK A01 T00381009  RH  072%=      5-min Rain = 0
KVE1 080514Z 07007KT 04/M01 A2996 RMK A01 T00381009  RH  071%=      5-min Rain = 0
KVE1 080515Z 07007KT 04/M01 A2996 RMK A01 T00391009  RH  071%=      5-min Rain = 0
KVE1 080516Z 07007KT 04/M01 A2996 RMK A01 T00391009  RH  071%=      5-min Rain = 0
KVE1 080517Z 08006KT 04/M01 A2996 RMK A01 T00391010  RH  070%=      5-min Rain = 0
KVE1 080518Z 07006KT 04/M01 A2996 RMK A01 T00391010  RH  070%=      5-min Rain = 0
KVE1 080519Z 08006KT 04/M01 A2996 RMK A01 T00391010  RH  070%=      5-min Rain = 0
KVE1 080520Z 08006KT 04/M01 A2996 RMK A01 T00381010  RH  071%=      5-min Rain = 0
KVE1 080521Z 08005KT 04/M01 A2996 RMK A01 T00371011  RH  071%=      5-min Rain = 0
KVE1 080522Z 09005KT 04/M01 A2996 RMK A01 T00361011  RH  071%=      5-min Rain = 0
KVE1 080523Z 10005KT 04/M01 A2996 RMK A01 T00361011  RH  072%=      5-min Rain = 0
KVE1 080524Z 11005KT 03/M01 A2996 RMK A01 T00341012  RH  072%=      5-min Rain = 0
KVE1 080525Z 12005KT 03/M01 A2996 RMK A01 T00311014  RH  072%=      5-min Rain = 0
KVE1 080526Z 12005KT 03/M01 A2996 RMK A01 T00301014  RH  073%=      5-min Rain = 0
KVE1 080527Z 12006KT 03/M01 A2996 RMK A01 T00291014  RH  073%=      5-min Rain = 0
KVE1 080528Z 12006KT 03/M01 A2996 RMK A01 T00281014  RH  074%=      5-min Rain = 0
KVE1 080529Z 12007KT 03/M01 A2996 RMK A01 T00271014  RH  074%=      5-min Rain = 0
KVE1 080530Z 12007KT 03/M01 A2996 RMK A01 T00261014  RH  075%=      5-min Rain = 0
KVE1 080531Z 12006KT 03/M01 A2996 RMK A01 T00271013  RH  075%=      5-min Rain = 0
KVE1 080532Z 12007KT 03/M01 A2996 RMK A01 T00301010  RH  075%=      5-min Rain = 0
KVE1 080533Z 11007KT 04/M01 A2996 RMK A01 T00361008  RH  073%=      5-min Rain = 0
KVE1 080534Z 11007KT 04/M01 A2996 RMK A01 T00401008  RH  071%=      5-min Rain = 0
KVE1 080535Z 11007KT 04/M01 A2996 RMK A01 T00411008  RH  070%=      5-min Rain = 0
KVE1 080536Z 11008KT 05/M01 A2996 RMK A01 T00471006  RH  069%=      5-min Rain = 0
KVE1 080537Z 10008KT 05/M01 A2996 RMK A01 T00511006  RH  066%=      5-min Rain = 0
KVE1 080538Z 10008KT 05/M01 A2996 RMK A01 T00531006  RH  066%=      5-min Rain = 0
KVE1 080539Z 10008KT 05/M01 A2996 RMK A01 T00541006  RH  065%=      5-min Rain = 0
KVE1 080540Z 10008KT 06/M01 A2996 RMK A01 T00561006  RH  064%=      5-min Rain = 0
KVE1 080541Z 10008KT 06/M01 A2996 RMK A01 T00571006  RH  064%=      5-min Rain = 0
KVE1 080542Z 10008KT 06/M01 A2996 RMK A01 T00581006  RH  064%=      5-min Rain = 0
KVE1 080543Z 10008KT 06/M01 A2996 RMK A01 T00581006  RH  064%=      5-min Rain = 0
KVE1 080544Z 10007KT 06/M01 A2996 RMK A01 T00581006  RH  064%=      5-min Rain = 0
KVE1 080545Z 10007KT 06/M01 A2996 RMK A01 T00571006  RH  064%=      5-min Rain = 0
KVE1 080546Z 11007KT 06/M01 A2996 RMK A01 T00571006  RH  064%=      5-min Rain = 0
KVE1 080547Z 12007KT 06/M01 A2996 RMK A01 T00551007  RH  064%=      5-min Rain = 0
KVE1 080548Z 12007KT 05/M01 A2996 RMK A01 T00531007  RH  065%=      5-min Rain = 0
KVE1 080549Z 12006KT 05/M01 A2996 RMK A01 T00501008  RH  066%=      5-min Rain = 0
KVE1 080550Z 13006KT 05/M01 A2996 RMK A01 T00471008  RH  067%=      5-min Rain = 0
KVE1 080551Z 13007KT 04/M01 A2996 RMK A01 T00441009  RH  069%=      5-min Rain = 0
KVE1 080552Z 13007KT 04/M01 A2996 RMK A01 T00421008  RH  070%=      5-min Rain = 0
KVE1 080553Z 12006KT 04/M01 A2996 RMK A01 T00411008  RH  070%=      5-min Rain = 0
KVE1 080554Z 12007KT 04/M01 A2996 RMK A01 T00401008  RH  071%=      5-min Rain = 0
KVE1 080555Z 11007KT 04/M01 A2996 RMK A01 T00391008  RH  071%=      5-min Rain = 0
KVE1 080556Z 11007KT 04/M01 A2996 RMK A01 T00381009  RH  071%=      5-min Rain = 0
KVE1 080557Z 11007KT 04/M01 A2996 RMK A01 T00381009  RH  072%=      5-min Rain = 0
KVE1 080558Z 11007KT 04/M01 A2996 RMK A01 T00391009  RH  071%=      5-min Rain = 0
KVE1 080559Z 11007KT 04/M01 A2996 RMK A01 T00411008  RH  071%=      5-min Rain = 0
KVE1 080600Z 10007KT 04/M01 A2996 RMK A01 T00421008  RH  070%=      5-min Rain = 0
KVE1 080601Z 10008KT 04/M01 A2996 RMK A01 T00441008  RH  069%=      5-min Rain = 0
KVE1 080602Z 10008KT 04/M01 A2996 RMK A01 T00441009  RH  068%=      5-min Rain = 0
KVE1 080603Z 11008KT 04/M01 A2996 RMK A01 T00441009  RH  068%=      5-min Rain = 0
KVE1 080604Z 11008KT 04/M01 A2996 RMK A01 T00441009  RH  068%=      5-min Rain = 0
KVE1 080605Z 11008KT 04/M01 A2996 RMK A01 T00441009  RH  068%=      5-min Rain = 0
KVE1 080606Z 12007KT 04/M01 A2996 RMK A01 T00441009  RH  068%=      5-min Rain = 0
KVE1 080607Z 13007KT 04/M01 A2996 RMK A01 T00431010  RH  069%=      5-min Rain = 0
KVE1 080608Z 14007KT 04/M01 A2996 RMK A01 T00401010  RH  070%=      5-min Rain = 0
KVE1 080609Z 14008KT 04/M01 A2996 RMK A01 T00371011  RH  071%=      5-min Rain = 0
KVE1 080610Z 14008KT 04/M01 A2996 RMK A01 T00361010  RH  072%=      5-min Rain = 0
KVE1 080611Z 14008KT 04/M01 A2996 RMK A01 T00361010  RH  072%=      5-min Rain = 0
KVE1 080612Z 13008KT 04/M01 A2996 RMK A01 T00361010  RH  072%=      5-min Rain = 0
KVE1 080613Z 13007KT 04/M01 A2996 RMK A01 T00361010  RH  072%=      5-min Rain = 0
KVE1 080614Z 13007KT 04/M01 A2996 RMK A01 T00361010  RH  072%=      5-min Rain = 0
KVE1 080615Z 13007KT 04/M01 A2996 RMK A01 T00361010  RH  072%=      5-min Rain = 0
KVE1 080616Z 12008KT 04/M01 A2995 RMK A01 T00371009  RH  072%=      5-min Rain = 0
KVE1 080617Z 12008KT 04/M01 A2995 RMK A01 T00391008  RH  071%=      5-min Rain = 0
KVE1 080618Z 12008KT 04/M01 A2995 RMK A01 T00411007  RH  071%=      5-min Rain = 0
KVE1 080619Z 12008KT 04/M01 A2995 RMK A01 T00411007  RH  070%=      5-min Rain = 0
KVE1 080620Z 12008KT 04/M01 A2995 RMK A01 T00421008  RH  070%=      5-min Rain = 0
KVE1 080621Z 12008KT 04/M01 A2995 RMK A01 T00421007  RH  070%=      5-min Rain = 0
KVE1 080622Z 12008KT 04/M01 A2995 RMK A01 T00431007  RH  070%=      5-min Rain = 0
KVE1 080623Z 12008KT 05/M01 A2995 RMK A01 T00451007  RH  069%=      5-min Rain = 0
KVE1 080624Z 12008KT 05/M01 A2995 RMK A01 T00461007  RH  069%=      5-min Rain = 0
KVE1 080625Z 12008KT 05/M01 A2996 RMK A01 T00461007  RH  068%=      5-min Rain = 0
KVE1 080626Z 12008KT 05/M01 A2996 RMK A01 T00451008  RH  069%=      5-min Rain = 0
KVE1 080627Z 12007KT 04/M01 A2996 RMK A01 T00431008  RH  069%=      5-min Rain = 0
KVE1 080628Z 12006KT 04/M01 A2996 RMK A01 T00411008  RH  070%=      5-min Rain = 0
KVE1 080629Z 13006KT 04/M01 A2996 RMK A01 T00391008  RH  071%=      5-min Rain = 0
KVE1 080630Z 13005KT 04/M01 A2996 RMK A01 T00381008  RH  072%=      5-min Rain = 0
KVE1 080631Z 13006KT 04/M01 A2996 RMK A01 T00371008  RH  073%=      5-min Rain = 0
KVE1 080632Z 13006KT 04/M01 A2996 RMK A01 T00361008  RH  073%=      5-min Rain = 0
KVE1 080633Z 13006KT 04/M01 A2996 RMK A01 T00351008  RH  074%=      5-min Rain = 0
KVE1 080634Z 13005KT 03/M01 A2996 RMK A01 T00341009  RH  074%=      5-min Rain = 0
KVE1 080635Z 13005KT 03/M01 A2996 RMK A01 T00331008  RH  074%=      5-min Rain = 0
KVE1 080636Z 13005KT 03/M01 A2996 RMK A01 T00331009  RH  074%=      5-min Rain = 0
KVE1 080637Z 12005KT 03/M01 A2996 RMK A01 T00331009  RH  074%=      5-min Rain = 0
KVE1 080638Z 12005KT 03/M01 A2996 RMK A01 T00331009  RH  074%=      5-min Rain = 0
KVE1 080639Z 12005KT 03/M01 A2996 RMK A01 T00331009  RH  074%=      5-min Rain = 0
KVE1 080640Z 12005KT 03/M01 A2996 RMK A01 T00331010  RH  073%=      5-min Rain = 0
KVE1 080641Z 12005KT 04/M01 A2996 RMK A01 T00351009  RH  073%=      5-min Rain = 0
KVE1 080642Z 12005KT 04/M01 A2996 RMK A01 T00401008  RH  071%=      5-min Rain = 0
KVE1 080643Z 12005KT 04/M01 A2996 RMK A01 T00441009  RH  069%=      5-min Rain = 0
KVE1 080644Z 12005KT 05/M01 A2996 RMK A01 T00461009  RH  068%=      5-min Rain = 0
KVE1 080645Z 11004KT 05/M01 A2996 RMK A01 T00471009  RH  067%=      5-min Rain = 0
KVE1 080646Z 11004KT 05/M01 A2996 RMK A01 T00481010  RH  066%=      5-min Rain = 0
KVE1 080647Z 11003KT 05/M01 A2996 RMK A01 T00481010  RH  066%=      5-min Rain = 0
KVE1 080648Z 11002KT 04/M02 A2996 RMK A01 T00431016  RH  066%=      5-min Rain = 0
KVE1 080649Z 36001KT 04/M02 A2996 RMK A01 T00351017  RH  069%=      5-min Rain = 0
KVE1 080650Z 33002KT 03/M01 A2996 RMK A01 T00331013  RH  072%=      5-min Rain = 0
KVE1 080651Z 32003KT 03/M01 A2996 RMK A01 T00331011  RH  073%=      5-min Rain = 0
KVE1 080652Z 31001KT 04/M01 A2996 RMK A01 T00351010  RH  073%=      5-min Rain = 0
KVE1 080653Z 32001KT 04/M01 A2996 RMK A01 T00381008  RH  072%=      5-min Rain = 0
KVE1 080654Z 31000KT 04/M01 A2996 RMK A01 T00411008  RH  070%=      5-min Rain = 0
KVE1 080655Z 31000KT 05/M01 A2996 RMK A01 T00451008  RH  069%=      5-min Rain = 0
KVE1 080656Z 32001KT 05/M01 A2996 RMK A01 T00471009  RH  067%=      5-min Rain = 0
KVE1 080657Z 32001KT 05/M01 A2996 RMK A01 T00491009  RH  066%=      5-min Rain = 0
KVE1 080658Z 32000KT 05/M01 A2997 RMK A01 T00541007  RH  064%=      5-min Rain = 0
KVE1 080659Z 10000KT 06/M01 A2997 RMK A01 T00591007  RH  062%=      5-min Rain = 0
KVE1 080700Z 10000KT 06/M01 A2997 RMK A01 T00631008  RH  061%=      5-min Rain = 0
KVE1 080701Z 10001KT 06/M01 A2997 RMK A01 T00641009  RH  060%=      5-min Rain = 0
KVE1 080702Z 11001KT 06/M01 A2997 RMK A01 T00641009  RH  059%=      5-min Rain = 0
KVE1 080703Z 12001KT 06/M01 A2997 RMK A01 T00641011  RH  059%=      5-min Rain = 0
KVE1 080704Z 00000KT 06/M02 A2997 RMK A01 T00591015  RH  059%=      5-min Rain = 0
KVE1 080705Z 00000KT 05/M02 A2997 RMK A01 T00541016  RH  061%=      5-min Rain = 0
KVE1 080706Z 18001KT 05/M02 A2997 RMK A01 T00511016  RH  062%=      5-min Rain = 0
KVE1 080707Z 22001KT 04/M02 A2997 RMK A01 T00401022  RH  064%=      5-min Rain = 0
KVE1 080708Z 24001KT 03/M02 A2997 RMK A01 T00331020  RH  068%=      5-min Rain = 0
KVE1 080709Z 22001KT 03/M02 A2997 RMK A01 T00311018  RH  070%=      5-min Rain = 0
KVE1 080710Z 22001KT 03/M02 A2997 RMK A01 T00301018  RH  071%=      5-min Rain = 0
KVE1 080711Z 21001KT 03/M02 A2997 RMK A01 T00291018  RH  071%=      5-min Rain = 0
KVE1 080712Z 21001KT 03/M02 A2997 RMK A01 T00281017  RH  072%=      5-min Rain = 0
KVE1 080713Z 19001KT 03/M02 A2997 RMK A01 T00281017  RH  072%=      5-min Rain = 0
KVE1 080714Z 19001KT 03/M02 A2997 RMK A01 T00271017  RH  072%=      5-min Rain = 0
KVE1 080715Z 19000KT 03/M02 A2997 RMK A01 T00271017  RH  073%=      5-min Rain = 0
KVE1 080716Z 00000KT 03/M02 A2997 RMK A01 T00261018  RH  073%=      5-min Rain = 0
KVE1 080717Z 00000KT 03/M02 A2997 RMK A01 T00251018  RH  073%=      5-min Rain = 0
KVE1 080718Z 00000KT 02/M02 A2997 RMK A01 T00241018  RH  074%=      5-min Rain = 0
KVE1 080719Z 19001KT 02/M02 A2997 RMK A01 T00241017  RH  074%=      5-min Rain = 0
KVE1 080720Z 19000KT 02/M02 A2997 RMK A01 T00231017  RH  075%=      5-min Rain = 0
KVE1 080721Z 00000KT 02/M02 A2997 RMK A01 T00231017  RH  075%=      5-min Rain = 0
KVE1 080722Z 25001KT 02/M02 A2997 RMK A01 T00221016  RH  075%=      5-min Rain = 0
KVE1 080723Z 25002KT 02/M02 A2997 RMK A01 T00231017  RH  075%=      5-min Rain = 0
KVE1 080724Z 25002KT 02/M02 A2996 RMK A01 T00231017  RH  075%=      5-min Rain = 0
KVE1 080725Z 25002KT 02/M02 A2997 RMK A01 T00231017  RH  075%=      5-min Rain = 0
KVE1 080726Z 24003KT 02/M02 A2997 RMK A01 T00231017  RH  075%=      5-min Rain = 0
KVE1 080727Z 21003KT 02/M02 A2997 RMK A01 T00231017  RH  075%=      5-min Rain = 0
KVE1 080728Z 20003KT 02/M02 A2997 RMK A01 T00241016  RH  075%=      5-min Rain = 0
KVE1 080729Z 21002KT 03/M02 A2997 RMK A01 T00251015  RH  075%=      5-min Rain = 0
KVE1 080730Z 21002KT 03/M02 A2996 RMK A01 T00261016  RH  074%=      5-min Rain = 0
KVE1 080731Z 18002KT 03/M02 A2996 RMK A01 T00261016  RH  074%=      5-min Rain = 0
KVE1 080732Z 15002KT 03/M02 A2996 RMK A01 T00261016  RH  074%=      5-min Rain = 0
KVE1 080733Z 15002KT 03/M02 A2996 RMK A01 T00261017  RH  073%=      5-min Rain = 0
KVE1 080734Z 15002KT 03/M02 A2996 RMK A01 T00261017  RH  074%=      5-min Rain = 0
KVE1 080735Z 16002KT 03/M02 A2996 RMK A01 T00261016  RH  074%=      5-min Rain = 0
KVE1 080736Z 16002KT 03/M02 A2996 RMK A01 T00261016  RH  074%=      5-min Rain = 0
KVE1 080737Z 18003KT 03/M02 A2996 RMK A01 T00271015  RH  074%=      5-min Rain = 0
KVE1 080738Z 19003KT 03/M01 A2996 RMK A01 T00291013  RH  074%=      5-min Rain = 0
KVE1 080739Z 19003KT 03/M01 A2996 RMK A01 T00311012  RH  073%=      5-min Rain = 0
KVE1 080740Z 19003KT 03/M01 A2996 RMK A01 T00311013  RH  073%=      5-min Rain = 0
KVE1 080741Z 19002KT 03/M02 A2996 RMK A01 T00311015  RH  072%=      5-min Rain = 0
KVE1 080742Z 19002KT 03/M02 A2996 RMK A01 T00301016  RH  072%=      5-min Rain = 0
KVE1 080743Z 20002KT 03/M02 A2996 RMK A01 T00291016  RH  072%=      5-min Rain = 0
KVE1 080744Z 20001KT 03/M02 A2996 RMK A01 T00281017  RH  073%=      5-min Rain = 0
KVE1 080745Z 22002KT 03/M02 A2996 RMK A01 T00261017  RH  073%=      5-min Rain = 0
KVE1 080746Z 23002KT 03/M02 A2996 RMK A01 T00261017  RH  074%=      5-min Rain = 0
KVE1 080747Z 23002KT 03/M02 A2996 RMK A01 T00251017  RH  074%=      5-min Rain = 0
KVE1 080748Z 24002KT 03/M02 A2996 RMK A01 T00251016  RH  074%=      5-min Rain = 0
KVE1 080749Z 26002KT 03/M02 A2996 RMK A01 T00251016  RH  074%=      5-min Rain = 0
KVE1 080750Z 26003KT 03/M01 A2996 RMK A01 T00271014  RH  074%=      5-min Rain = 0
KVE1 080751Z 26003KT 03/M01 A2996 RMK A01 T00311013  RH  073%=      5-min Rain = 0
KVE1 080752Z 25003KT 03/M01 A2996 RMK A01 T00331013  RH  072%=      5-min Rain = 0
KVE1 080753Z 25003KT 03/M02 A2996 RMK A01 T00321017  RH  070%=      5-min Rain = 0
KVE1 080754Z 26002KT 03/M03 A2996 RMK A01 T00251026  RH  069%=      5-min Rain = 0
KVE1 080755Z 24002KT 02/M03 A2996 RMK A01 T00201025  RH  072%=      5-min Rain = 0
KVE1 080756Z 24002KT 02/M02 A2996 RMK A01 T00181023  RH  074%=      5-min Rain = 0
KVE1 080757Z 24002KT 02/M02 A2996 RMK A01 T00171021  RH  076%=      5-min Rain = 0
KVE1 080758Z 24002KT 02/M02 A2996 RMK A01 T00171019  RH  077%=      5-min Rain = 0
KVE1 080759Z 24002KT 02/M02 A2996 RMK A01 T00171019  RH  077%=      5-min Rain = 0
KVE1 080800Z 26002KT 02/M02 A2996 RMK A01 T00171019  RH  077%=      5-min Rain = 0
KVE1 080801Z 28001KT 02/M02 A2996 RMK A01 T00181020  RH  076%=      5-min Rain = 0
KVE1 080802Z 28002KT 02/M02 A2996 RMK A01 T00171018  RH  077%=      5-min Rain = 0
KVE1 080803Z 27002KT 02/M02 A2996 RMK A01 T00191017  RH  077%=      5-min Rain = 0
KVE1 080804Z 26001KT 02/M02 A2996 RMK A01 T00211016  RH  076%=      5-min Rain = 0
KVE1 080805Z 25001KT 02/M02 A2996 RMK A01 T00231016  RH  076%=      5-min Rain = 0
KVE1 080806Z 24001KT 02/M02 A2996 RMK A01 T00241015  RH  075%=      5-min Rain = 0
KVE1 080807Z 22001KT 03/M02 A2996 RMK A01 T00251017  RH  074%=      5-min Rain = 0
KVE1 080808Z 22000KT 03/M02 A2995 RMK A01 T00251017  RH  074%=      5-min Rain = 0
KVE1 080809Z 22000KT 02/M02 A2995 RMK A01 T00241016  RH  075%=      5-min Rain = 0
KVE1 080810Z 22000KT 03/M02 A2995 RMK A01 T00251016  RH  074%=      5-min Rain = 0
KVE1 080811Z 21001KT 03/M02 A2995 RMK A01 T00251017  RH  074%=      5-min Rain = 0
KVE1 080812Z 21002KT 03/M02 A2995 RMK A01 T00251017  RH  074%=      5-min Rain = 0
KVE1 080813Z 22001KT 03/M02 A2995 RMK A01 T00251016  RH  074%=      5-min Rain = 0
KVE1 080814Z 22001KT 03/M02 A2995 RMK A01 T00251016  RH  074%=      5-min Rain = 0
KVE1 080815Z 22001KT 03/M02 A2995 RMK A01 T00261016  RH  074%=      5-min Rain = 0
KVE1 080816Z 23001KT 03/M02 A2995 RMK A01 T00261017  RH  074%=      5-min Rain = 0
KVE1 080817Z 23001KT 03/M02 A2995 RMK A01 T00251017  RH  074%=      5-min Rain = 0
KVE1 080818Z 22001KT 03/M02 A2995 RMK A01 T00251017  RH  074%=      5-min Rain = 0
KVE1 080819Z 22002KT 03/M02 A2995 RMK A01 T00251018  RH  074%=      5-min Rain = 0
KVE1 080820Z 23002KT 02/M02 A2995 RMK A01 T00241018  RH  074%=      5-min Rain = 0
KVE1 080821Z 23002KT 02/M02 A2995 RMK A01 T00241018  RH  074%=      5-min Rain = 0
KVE1 080822Z 23002KT 02/M02 A2995 RMK A01 T00231018  RH  074%=      5-min Rain = 0
KVE1 080823Z 24002KT 02/M02 A2995 RMK A01 T00231017  RH  075%=      5-min Rain = 0
KVE1 080824Z 24001KT 02/M02 A2995 RMK A01 T00221017  RH  075%=      5-min Rain = 0
KVE1 080825Z 24002KT 02/M02 A2995 RMK A01 T00221017  RH  075%=      5-min Rain = 0
KVE1 080826Z 24002KT 02/M02 A2995 RMK A01 T00221018  RH  075%=      5-min Rain = 0
KVE1 080827Z 22001KT 02/M02 A2995 RMK A01 T00221018  RH  075%=      5-min Rain = 0
KVE1 080828Z 22001KT 02/M02 A2995 RMK A01 T00221018  RH  075%=      5-min Rain = 0
KVE1 080829Z 23002KT 02/M02 A2995 RMK A01 T00231017  RH  075%=      5-min Rain = 0
KVE1 080830Z 24002KT 02/M02 A2995 RMK A01 T00241016  RH  075%=      5-min Rain = 0
KVE1 080831Z 24002KT 02/M02 A2995 RMK A01 T00241017  RH  074%=      5-min Rain = 0
KVE1 080832Z 24002KT 02/M02 A2995 RMK A01 T00241018  RH  074%=      5-min Rain = 0
KVE1 080833Z 24002KT 03/M02 A2995 RMK A01 T00251018  RH  074%=      5-min Rain = 0
KVE1 080834Z 23002KT 03/M02 A2995 RMK A01 T00251018  RH  074%=      5-min Rain = 0
KVE1 080835Z 23003KT 03/M02 A2995 RMK A01 T00251018  RH  074%=      5-min Rain = 0
KVE1 080836Z 22003KT 03/M02 A2995 RMK A01 T00251017  RH  074%=      5-min Rain = 0
KVE1 080837Z 21003KT 03/M02 A2995 RMK A01 T00251017  RH  074%=      5-min Rain = 0
KVE1 080838Z 21003KT 03/M02 A2995 RMK A01 T00261016  RH  074%=      5-min Rain = 0
KVE1 080839Z 21003KT 03/M02 A2995 RMK A01 T00271016  RH  074%=      5-min Rain = 0
KVE1 080840Z 21002KT 03/M02 A2995 RMK A01 T00281015  RH  073%=      5-min Rain = 0
KVE1 080841Z 21002KT 03/M02 A2995 RMK A01 T00281015  RH  073%=      5-min Rain = 0
KVE1 080842Z 22002KT 03/M02 A2995 RMK A01 T00291016  RH  072%=      5-min Rain = 0
KVE1 080843Z 23003KT 03/M02 A2994 RMK A01 T00301016  RH  072%=      5-min Rain = 0
KVE1 080844Z 23003KT 03/M02 A2994 RMK A01 T00301016  RH  072%=      5-min Rain = 0
KVE1 080845Z 23003KT 03/M02 A2994 RMK A01 T00311016  RH  072%=      5-min Rain = 0
KVE1 080846Z 23003KT 03/M02 A2994 RMK A01 T00311016  RH  071%=      5-min Rain = 0
KVE1 080847Z 22003KT 03/M02 A2994 RMK A01 T00321016  RH  071%=      5-min Rain = 0
KVE1 080848Z 21003KT 03/M02 A2994 RMK A01 T00321016  RH  071%=      5-min Rain = 0
KVE1 080849Z 21002KT 03/M02 A2994 RMK A01 T00311017  RH  071%=      5-min Rain = 0
KVE1 080850Z 21002KT 03/M02 A2994 RMK A01 T00311017  RH  071%=      5-min Rain = 0
KVE1 080851Z 20002KT 03/M02 A2994 RMK A01 T00291017  RH  071%=      5-min Rain = 0
KVE1 080852Z 20002KT 03/M02 A2994 RMK A01 T00291017  RH  072%=      5-min Rain = 0
KVE1 080853Z 21002KT 03/M02 A2994 RMK A01 T00291016  RH  072%=      5-min Rain = 0
KVE1 080854Z 21002KT 03/M02 A2994 RMK A01 T00291017  RH  072%=      5-min Rain = 0
KVE1 080855Z 22001KT 03/M02 A2994 RMK A01 T00291017  RH  072%=      5-min Rain = 0
KVE1 080856Z 23001KT 03/M02 A2994 RMK A01 T00291017  RH  072%=      5-min Rain = 0
KVE1 080857Z 23002KT 03/M02 A2993 RMK A01 T00301017  RH  072%=      5-min Rain = 0
KVE1 080858Z 23002KT 03/M02 A2993 RMK A01 T00301017  RH  072%=      5-min Rain = 0
KVE1 080859Z 22002KT 03/M02 A2993 RMK A01 T00301016  RH  072%=      5-min Rain = 0
KVE1 080900Z 21002KT 03/M02 A2993 RMK A01 T00311016  RH  071%=      5-min Rain = 0
KVE1 080901Z 19002KT 03/M02 A2993 RMK A01 T00311016  RH  071%=      5-min Rain = 0
KVE1 080902Z 19003KT 03/M02 A2993 RMK A01 T00321016  RH  071%=      5-min Rain = 0
KVE1 080903Z 20003KT 03/M02 A2993 RMK A01 T00331016  RH  070%=      5-min Rain = 0
KVE1 080904Z 20003KT 03/M02 A2993 RMK A01 T00341015  RH  070%=      5-min Rain = 0
KVE1 080905Z 20003KT 04/M02 A2993 RMK A01 T00351016  RH  070%=      5-min Rain = 0
KVE1 080906Z 22002KT 04/M02 A2993 RMK A01 T00351016  RH  069%=      5-min Rain = 0
KVE1 080907Z 23002KT 03/M02 A2993 RMK A01 T00341016  RH  069%=      5-min Rain = 0
KVE1 080908Z 24002KT 03/M02 A2993 RMK A01 T00341016  RH  070%=      5-min Rain = 0
KVE1 080909Z 24002KT 03/M02 A2993 RMK A01 T00341016  RH  070%=      5-min Rain = 0
KVE1 080910Z 24002KT 03/M02 A2993 RMK A01 T00331016  RH  070%=      5-min Rain = 0
KVE1 080911Z 24002KT 03/M02 A2993 RMK A01 T00331016  RH  070%=      5-min Rain = 0
KVE1 080912Z 24001KT 03/M02 A2993 RMK A01 T00331016  RH  070%=      5-min Rain = 0
KVE1 080913Z 24001KT 03/M02 A2993 RMK A01 T00331016  RH  070%=      5-min Rain = 0
KVE1 080914Z 23002KT 03/M02 A2993 RMK A01 T00331016  RH  070%=      5-min Rain = 0
KVE1 080915Z 23002KT 03/M02 A2993 RMK A01 T00331016  RH  070%=      5-min Rain = 0
KVE1 080916Z 22002KT 03/M02 A2993 RMK A01 T00331016  RH  070%=      5-min Rain = 0
KVE1 080917Z 22002KT 03/M02 A2993 RMK A01 T00321016  RH  070%=      5-min Rain = 0
KVE1 080918Z 22002KT 03/M02 A2993 RMK A01 T00331016  RH  070%=      5-min Rain = 0
KVE1 080919Z 23002KT 03/M02 A2993 RMK A01 T00331016  RH  070%=      5-min Rain = 0
KVE1 080920Z 23003KT 03/M02 A2993 RMK A01 T00331016  RH  070%=      5-min Rain = 0
KVE1 080921Z 24003KT 03/M02 A2993 RMK A01 T00321016  RH  070%=      5-min Rain = 0
KVE1 080922Z 24002KT 03/M02 A2993 RMK A01 T00321017  RH  070%=      5-min Rain = 0
KVE1 080923Z 24002KT 03/M02 A2993 RMK A01 T00311017  RH  070%=      5-min Rain = 0
KVE1 080924Z 24002KT 03/M02 A2993 RMK A01 T00311018  RH  070%=      5-min Rain = 0
KVE1 080925Z 23003KT 03/M02 A2993 RMK A01 T00301018  RH  071%=      5-min Rain = 0
KVE1 080926Z 23002KT 03/M02 A2993 RMK A01 T00291018  RH  072%=      5-min Rain = 0
KVE1 080927Z 23002KT 03/M02 A2993 RMK A01 T00281018  RH  072%=      5-min Rain = 0
KVE1 080928Z 24002KT 03/M02 A2993 RMK A01 T00261019  RH  072%=      5-min Rain = 0
KVE1 080929Z 24002KT 03/M02 A2993 RMK A01 T00251020  RH  072%=      5-min Rain = 0
KVE1 080930Z 25002KT 02/M02 A2993 RMK A01 T00241020  RH  073%=      5-min Rain = 0
KVE1 080931Z 25002KT 02/M02 A2993 RMK A01 T00231019  RH  074%=      5-min Rain = 0
KVE1 080932Z 24002KT 02/M02 A2993 RMK A01 T00231019  RH  074%=      5-min Rain = 0
KVE1 080933Z 23002KT 02/M02 A2993 RMK A01 T00221018  RH  075%=      5-min Rain = 0
KVE1 080934Z 23003KT 02/M02 A2993 RMK A01 T00221018  RH  075%=      5-min Rain = 0
KVE1 080935Z 22003KT 02/M02 A2993 RMK A01 T00221018  RH  075%=      5-min Rain = 0
KVE1 080936Z 22002KT 02/M02 A2993 RMK A01 T00221018  RH  075%=      5-min Rain = 0
KVE1 080937Z 22003KT 02/M02 A2993 RMK A01 T00221018  RH  075%=      5-min Rain = 0
KVE1 080938Z 22003KT 02/M02 A2993 RMK A01 T00231018  RH  075%=      5-min Rain = 0
KVE1 080939Z 22002KT 02/M02 A2993 RMK A01 T00231018  RH  074%=      5-min Rain = 0
KVE1 080940Z 22002KT 02/M02 A2993 RMK A01 T00231018  RH  074%=      5-min Rain = 0
KVE1 080941Z 22001KT 02/M02 A2993 RMK A01 T00241018  RH  074%=      5-min Rain = 0
KVE1 080942Z 22002KT 02/M02 A2993 RMK A01 T00241018  RH  074%=      5-min Rain = 0
KVE1 080943Z 22002KT 02/M02 A2993 RMK A01 T00241018  RH  074%=      5-min Rain = 0
KVE1 080944Z 22002KT 03/M02 A2993 RMK A01 T00251018  RH  073%=      5-min Rain = 0
KVE1 080945Z 22002KT 03/M02 A2993 RMK A01 T00251018  RH  073%=      5-min Rain = 0
KVE1 080946Z 22002KT 03/M02 A2993 RMK A01 T00261018  RH  073%=      5-min Rain = 0
KVE1 080947Z 22002KT 03/M02 A2993 RMK A01 T00261018  RH  073%=      5-min Rain = 0
KVE1 080948Z 22002KT 03/M02 A2993 RMK A01 T00271018  RH  072%=      5-min Rain = 0
KVE1 080949Z 23002KT 03/M02 A2993 RMK A01 T00271018  RH  072%=      5-min Rain = 0
KVE1 080950Z 23001KT 03/M02 A2993 RMK A01 T00271018  RH  072%=      5-min Rain = 0
KVE1 080951Z 23001KT 03/M02 A2993 RMK A01 T00271018  RH  072%=      5-min Rain = 0
KVE1 080952Z 22002KT 03/M02 A2993 RMK A01 T00271018  RH  072%=      5-min Rain = 0
KVE1 080953Z 22002KT 03/M02 A2993 RMK A01 T00271018  RH  072%=      5-min Rain = 0
KVE1 080954Z 22002KT 03/M02 A2993 RMK A01 T00271019  RH  072%=      5-min Rain = 0
KVE1 080955Z 22002KT 03/M02 A2993 RMK A01 T00271018  RH  072%=      5-min Rain = 0
KVE1 080956Z 22002KT 03/M02 A2993 RMK A01 T00271018  RH  072%=      5-min Rain = 0
KVE1 080957Z 22002KT 03/M02 A2993 RMK A01 T00271018  RH  072%=      5-min Rain = 0
KVE1 080958Z 23002KT 03/M02 A2993 RMK A01 T00261018  RH  072%=      5-min Rain = 0
KVE1 080959Z 24002KT 03/M02 A2993 RMK A01 T00261018  RH  073%=      5-min Rain = 0
KVE1 081000Z 25001KT 03/M02 A2993 RMK A01 T00261018  RH  073%=      5-min Rain = 0
KVE1 081001Z 26001KT 03/M02 A2993 RMK A01 T00271018  RH  072%=      5-min Rain = 0
KVE1 081002Z 26001KT 03/M02 A2993 RMK A01 T00271018  RH  072%=      5-min Rain = 0
KVE1 081003Z 26001KT 03/M02 A2993 RMK A01 T00281018  RH  072%=      5-min Rain = 0
KVE1 081004Z 24001KT 03/M02 A2993 RMK A01 T00291018  RH  071%=      5-min Rain = 0
KVE1 081005Z 22001KT 03/M02 A2993 RMK A01 T00291018  RH  071%=      5-min Rain = 0
KVE1 081006Z 22002KT 03/M02 A2993 RMK A01 T00301018  RH  071%=      5-min Rain = 0
KVE1 081007Z 22002KT 03/M02 A2993 RMK A01 T00311018  RH  070%=      5-min Rain = 0
KVE1 081008Z 24002KT 03/M02 A2993 RMK A01 T00311018  RH  070%=      5-min Rain = 0
KVE1 081009Z 26002KT 03/M02 A2993 RMK A01 T00311018  RH  070%=      5-min Rain = 0
KVE1 081010Z 27002KT 03/M02 A2993 RMK A01 T00311018  RH  070%=      5-min Rain = 0
KVE1 081011Z 27002KT 03/M02 A2993 RMK A01 T00321018  RH  070%=      5-min Rain = 0
KVE1 081012Z 27002KT 03/M02 A2993 RMK A01 T00321019  RH  069%=      5-min Rain = 0
KVE1 081013Z 25002KT 03/M02 A2993 RMK A01 T00311019  RH  069%=      5-min Rain = 0
KVE1 081014Z 24002KT 03/M02 A2993 RMK A01 T00311019  RH  070%=      5-min Rain = 0
KVE1 081015Z 24002KT 03/M02 A2993 RMK A01 T00301020  RH  070%=      5-min Rain = 0
KVE1 081016Z 24002KT 03/M02 A2993 RMK A01 T00271023  RH  070%=      5-min Rain = 0
KVE1 081017Z 25001KT 03/M02 A2993 RMK A01 T00251022  RH  071%=      5-min Rain = 0
KVE1 081018Z 26001KT 02/M02 A2993 RMK A01 T00241022  RH  071%=      5-min Rain = 0
KVE1 081019Z 27001KT 02/M03 A2993 RMK A01 T00231025  RH  071%=      5-min Rain = 0
KVE1 081020Z 26001KT 02/M03 A2993 RMK A01 T00211026  RH  071%=      5-min Rain = 0
KVE1 081021Z 25002KT 02/M02 A2993 RMK A01 T00191024  RH  073%=      5-min Rain = 0
KVE1 081022Z 24002KT 02/M02 A2993 RMK A01 T00181022  RH  075%=      5-min Rain = 0
KVE1 081023Z 24002KT 02/M02 A2993 RMK A01 T00181023  RH  074%=      5-min Rain = 0
KVE1 081024Z 24001KT 02/M03 A2993 RMK A01 T00171025  RH  074%=      5-min Rain = 0
KVE1 081025Z 26001KT 01/M03 A2993 RMK A01 T00141028  RH  074%=      5-min Rain = 0
KVE1 081026Z 29001KT 01/M03 A2993 RMK A01 T00101030  RH  074%=      5-min Rain = 0
KVE1 081027Z 29001KT 01/M03 A2993 RMK A01 T00081029  RH  076%=      5-min Rain = 0
KVE1 081028Z 28001KT 01/M03 A2993 RMK A01 T00071026  RH  079%=      5-min Rain = 0
KVE1 081029Z 24001KT 01/M02 A2993 RMK A01 T00071024  RH  079%=      5-min Rain = 0
KVE1 081030Z 23001KT 01/M02 A2993 RMK A01 T00071024  RH  080%=      5-min Rain = 0
KVE1 081031Z 23001KT 01/M02 A2993 RMK A01 T00071024  RH  079%=      5-min Rain = 0
KVE1 081032Z 23001KT 01/M02 A2993 RMK A01 T00071024  RH  080%=      5-min Rain = 0
KVE1 081033Z 23000KT 01/M02 A2993 RMK A01 T00071024  RH  080%=      5-min Rain = 0
KVE1 081034Z 00000KT 01/M02 A2993 RMK A01 T00071023  RH  080%=      5-min Rain = 0
KVE1 081035Z 00000KT 01/M02 A2993 RMK A01 T00071022  RH  081%=      5-min Rain = 0
KVE1 081036Z 24001KT 01/M02 A2993 RMK A01 T00081022  RH  080%=      5-min Rain = 0
KVE1 081037Z 24002KT 01/M02 A2993 RMK A01 T00091022  RH  080%=      5-min Rain = 0
KVE1 081038Z 24002KT 01/M02 A2993 RMK A01 T00091022  RH  080%=      5-min Rain = 0
KVE1 081039Z 24002KT 01/M02 A2993 RMK A01 T00101022  RH  079%=      5-min Rain = 0
KVE1 081040Z 23002KT 01/M02 A2993 RMK A01 T00101023  RH  079%=      5-min Rain = 0
KVE1 081041Z 23002KT 01/M02 A2993 RMK A01 T00091024  RH  078%=      5-min Rain = 0
KVE1 081042Z 23002KT 01/M02 A2994 RMK A01 T00091024  RH  078%=      5-min Rain = 0
KVE1 081043Z 25002KT 01/M02 A2994 RMK A01 T00091024  RH  079%=      5-min Rain = 0
KVE1 081044Z 26002KT 01/M02 A2994 RMK A01 T00081024  RH  079%=      5-min Rain = 0
KVE1 081045Z 26002KT 01/M02 A2994 RMK A01 T00081024  RH  079%=      5-min Rain = 0
KVE1 081046Z 25003KT 01/M02 A2994 RMK A01 T00081024  RH  079%=      5-min Rain = 0
KVE1 081047Z 24003KT 01/M02 A2994 RMK A01 T00081024  RH  079%=      5-min Rain = 0
KVE1 081048Z 24003KT 01/M02 A2994 RMK A01 T00071024  RH  079%=      5-min Rain = 0
KVE1 081049Z 24003KT 01/M02 A2994 RMK A01 T00071024  RH  080%=      5-min Rain = 0
KVE1 081050Z 23003KT 01/M02 A2994 RMK A01 T00071024  RH  080%=      5-min Rain = 0
KVE1 081051Z 23003KT 01/M02 A2994 RMK A01 T00061024  RH  080%=      5-min Rain = 0
KVE1 081052Z 24003KT 01/M02 A2994 RMK A01 T00061024  RH  080%=      5-min Rain = 0
KVE1 081053Z 26003KT 01/M02 A2994 RMK A01 T00061023  RH  081%=      5-min Rain = 0
KVE1 081054Z 26003KT 01/M02 A2994 RMK A01 T00061023  RH  081%=      5-min Rain = 0
KVE1 081055Z 25003KT 01/M02 A2994 RMK A01 T00071023  RH  080%=      5-min Rain = 0
KVE1 081056Z 25003KT 01/M02 A2994 RMK A01 T00071023  RH  080%=      5-min Rain = 0
KVE1 081057Z 23003KT 01/M02 A2994 RMK A01 T00071023  RH  080%=      5-min Rain = 0
KVE1 081058Z 23003KT 01/M02 A2994 RMK A01 T00071024  RH  080%=      5-min Rain = 0
KVE1 081059Z 23002KT 01/M03 A2994 RMK A01 T00061025  RH  079%=      5-min Rain = 0
KVE1 081100Z 25001KT 01/M03 A2994 RMK A01 T00051025  RH  080%=      5-min Rain = 0
KVE1 081101Z 27001KT 01/M02 A2994 RMK A01 T00051024  RH  081%=      5-min Rain = 0
KVE1 081102Z 26001KT 01/M02 A2994 RMK A01 T00071022  RH  081%=      5-min Rain = 0
KVE1 081103Z 24002KT 01/M02 A2994 RMK A01 T00081020  RH  081%=      5-min Rain = 0
KVE1 081104Z 23003KT 01/M02 A2994 RMK A01 T00111019  RH  080%=      5-min Rain = 0
KVE1 081105Z 22003KT 01/M02 A2994 RMK A01 T00121020  RH  080%=      5-min Rain = 0
KVE1 081106Z 23003KT 01/M02 A2994 RMK A01 T00131020  RH  079%=      5-min Rain = 0
KVE1 081107Z 23002KT 01/M02 A2994 RMK A01 T00131022  RH  078%=      5-min Rain = 0
KVE1 081108Z 24001KT 01/M02 A2994 RMK A01 T00131023  RH  077%=      5-min Rain = 0
KVE1 081109Z 25001KT 01/M02 A2994 RMK A01 T00131023  RH  077%=      5-min Rain = 0
KVE1 081110Z 24001KT 01/M02 A2994 RMK A01 T00131022  RH  078%=      5-min Rain = 0
KVE1 081111Z 23002KT 01/M02 A2994 RMK A01 T00141021  RH  077%=      5-min Rain = 0
KVE1 081112Z 23003KT 02/M02 A2994 RMK A01 T00151021  RH  077%=      5-min Rain = 0
KVE1 081113Z 23003KT 02/M02 A2994 RMK A01 T00161022  RH  076%=      5-min Rain = 0
KVE1 081114Z 24003KT 02/M02 A2994 RMK A01 T00161022  RH  076%=      5-min Rain = 0
KVE1 081115Z 25003KT 02/M02 A2994 RMK A01 T00171021  RH  076%=      5-min Rain = 0
KVE1 081116Z 26002KT 02/M02 A2994 RMK A01 T00171021  RH  076%=      5-min Rain = 0
KVE1 081117Z 27001KT 02/M02 A2994 RMK A01 T00171023  RH  075%=      5-min Rain = 0
KVE1 081118Z 25002KT 02/M02 A2994 RMK A01 T00151024  RH  075%=      5-min Rain = 0
KVE1 081119Z 23003KT 02/M02 A2994 RMK A01 T00151023  RH  076%=      5-min Rain = 0
KVE1 081120Z 23003KT 01/M02 A2994 RMK A01 T00141022  RH  077%=      5-min Rain = 0
KVE1 081121Z 23004KT 02/M02 A2994 RMK A01 T00151021  RH  077%=      5-min Rain = 0
KVE1 081122Z 23004KT 02/M02 A2994 RMK A01 T00171019  RH  077%=      5-min Rain = 0
KVE1 081123Z 23004KT 02/M02 A2994 RMK A01 T00191019  RH  076%=      5-min Rain = 0
KVE1 081124Z 24003KT 02/M02 A2994 RMK A01 T00201019  RH  075%=      5-min Rain = 0
KVE1 081125Z 24003KT 02/M02 A2994 RMK A01 T00201020  RH  075%=      5-min Rain = 0
KVE1 081126Z 26002KT 02/M02 A2994 RMK A01 T00201020  RH  075%=      5-min Rain = 0
KVE1 081127Z 26003KT 02/M02 A2994 RMK A01 T00191022  RH  074%=      5-min Rain = 0
KVE1 081128Z 26003KT 02/M02 A2994 RMK A01 T00181022  RH  075%=      5-min Rain = 0
KVE1 081129Z 25003KT 02/M02 A2994 RMK A01 T00181021  RH  076%=      5-min Rain = 0
KVE1 081130Z 25004KT 02/M02 A2994 RMK A01 T00181020  RH  076%=      5-min Rain = 0
KVE1 081131Z 25004KT 02/M02 A2994 RMK A01 T00191019  RH  076%=      5-min Rain = 0
KVE1 081132Z 25003KT 02/M02 A2994 RMK A01 T00201019  RH  075%=      5-min Rain = 0
KVE1 081133Z 27002KT 02/M02 A2994 RMK A01 T00201020  RH  075%=      5-min Rain = 0
KVE1 081134Z 28002KT 02/M02 A2994 RMK A01 T00201021  RH  074%=      5-min Rain = 0
KVE1 081135Z 30002KT 02/M02 A2994 RMK A01 T00201022  RH  074%=      5-min Rain = 0
KVE1 081136Z 28002KT 02/M02 A2994 RMK A01 T00181022  RH  075%=      5-min Rain = 0
KVE1 081137Z 25003KT 02/M02 A2994 RMK A01 T00171021  RH  076%=      5-min Rain = 0
KVE1 081138Z 24004KT 02/M02 A2994 RMK A01 T00171020  RH  076%=      5-min Rain = 0
KVE1 081139Z 24004KT 02/M02 A2994 RMK A01 T00181020  RH  076%=      5-min Rain = 0
KVE1 081140Z 24003KT 02/M02 A2994 RMK A01 T00201019  RH  076%=      5-min Rain = 0
KVE1 081141Z 25002KT 02/M02 A2994 RMK A01 T00211019  RH  075%=      5-min Rain = 0
KVE1 081142Z 28001KT 02/M02 A2994 RMK A01 T00211022  RH  073%=      5-min Rain = 0
KVE1 081143Z 31002KT 02/M02 A2994 RMK A01 T00201022  RH  074%=      5-min Rain = 0
KVE1 081144Z 31002KT 02/M02 A2994 RMK A01 T00191020  RH  075%=      5-min Rain = 0
KVE1 081145Z 29002KT 02/M02 A2994 RMK A01 T00201020  RH  075%=      5-min Rain = 0
KVE1 081146Z 29002KT 02/M02 A2994 RMK A01 T00211020  RH  074%=      5-min Rain = 0
KVE1 081147Z 29002KT 02/M02 A2994 RMK A01 T00221021  RH  074%=      5-min Rain = 0
KVE1 081148Z 27002KT 02/M02 A2994 RMK A01 T00211022  RH  073%=      5-min Rain = 0
KVE1 081149Z 26002KT 02/M02 A2994 RMK A01 T00191023  RH  074%=      5-min Rain = 0
KVE1 081150Z 27002KT 02/M02 A2994 RMK A01 T00171024  RH  074%=      5-min Rain = 0
KVE1 081151Z 28002KT 02/M03 A2994 RMK A01 T00151026  RH  074%=      5-min Rain = 0
KVE1 081152Z 29001KT 01/M03 A2994 RMK A01 T00131025  RH  076%=      5-min Rain = 0
KVE1 081153Z 30001KT 01/M02 A2994 RMK A01 T00131023  RH  077%=      5-min Rain = 0
KVE1 081154Z 28002KT 01/M02 A2994 RMK A01 T00141022  RH  077%=      5-min Rain = 0
KVE1 081155Z 27002KT 02/M02 A2994 RMK A01 T00161022  RH  076%=      5-min Rain = 0
KVE1 081156Z 27002KT 02/M02 A2994 RMK A01 T00161022  RH  076%=      5-min Rain = 0
KVE1 081157Z 27003KT 02/M02 A2994 RMK A01 T00171022  RH  075%=      5-min Rain = 0
KVE1 081158Z 27004KT 02/M02 A2994 RMK A01 T00171022  RH  075%=      5-min Rain = 0
KVE1 081159Z 27003KT 02/M02 A2994 RMK A01 T00171022  RH  075%=      5-min Rain = 0
KVE1 081200Z 28003KT 02/M02 A2994 RMK A01 T00171021  RH  076%=      5-min Rain = 0
KVE1 081201Z 28004KT 02/M02 A2994 RMK A01 T00181021  RH  075%=      5-min Rain = 0
KVE1 081202Z 29003KT 02/M02 A2994 RMK A01 T00191021  RH  075%=      5-min Rain = 0
KVE1 081203Z 29003KT 02/M02 A2994 RMK A01 T00201022  RH  074%=      5-min Rain = 0
KVE1 081204Z 29003KT 02/M02 A2994 RMK A01 T00201022  RH  074%=      5-min Rain = 0
KVE1 081205Z 29003KT 02/M02 A2994 RMK A01 T00201022  RH  074%=      5-min Rain = 0
KVE1 081206Z 28002KT 02/M02 A2994 RMK A01 T00201022  RH  074%=      5-min Rain = 0
KVE1 081207Z 27003KT 02/M02 A2994 RMK A01 T00191022  RH  074%=      5-min Rain = 0
KVE1 081208Z 27003KT 02/M02 A2994 RMK A01 T00191022  RH  074%=      5-min Rain = 0
KVE1 081209Z 28003KT 02/M02 A2994 RMK A01 T00181022  RH  075%=      5-min Rain = 0
KVE1 081210Z 28003KT 02/M02 A2994 RMK A01 T00181022  RH  075%=      5-min Rain = 0
KVE1 081211Z 28003KT 02/M02 A2994 RMK A01 T00181023  RH  075%=      5-min Rain = 0
KVE1 081212Z 29003KT 02/M02 A2994 RMK A01 T00171022  RH  075%=      5-min Rain = 0
KVE1 081213Z 29003KT 02/M02 A2994 RMK A01 T00171022  RH  075%=      5-min Rain = 0
KVE1 081214Z 29002KT 02/M02 A2994 RMK A01 T00171023  RH  075%=      5-min Rain = 0
KVE1 081215Z 29002KT 02/M02 A2994 RMK A01 T00161024  RH  075%=      5-min Rain = 0
KVE1 081216Z 29002KT 02/M02 A2994 RMK A01 T00151024  RH  075%=      5-min Rain = 0
KVE1 081217Z 28002KT 02/M02 A2994 RMK A01 T00151023  RH  076%=      5-min Rain = 0
KVE1 081218Z 27003KT 01/M02 A2994 RMK A01 T00141023  RH  076%=      5-min Rain = 0
KVE1 081219Z 27003KT 02/M02 A2994 RMK A01 T00151022  RH  077%=      5-min Rain = 0
KVE1 081220Z 27003KT 02/M02 A2994 RMK A01 T00151022  RH  076%=      5-min Rain = 0
KVE1 081221Z 27002KT 01/M03 A2994 RMK A01 T00141025  RH  075%=      5-min Rain = 0
KVE1 081222Z 27002KT 01/M03 A2994 RMK A01 T00121028  RH  075%=      5-min Rain = 0
KVE1 081223Z 27002KT 01/M03 A2994 RMK A01 T00091030  RH  075%=      5-min Rain = 0
KVE1 081224Z 27001KT 01/M03 A2994 RMK A01 T00071030  RH  076%=      5-min Rain = 0
KVE1 081225Z 27002KT 01/M03 A2994 RMK A01 T00061029  RH  078%=      5-min Rain = 0
KVE1 081226Z 26002KT 01/M03 A2994 RMK A01 T00061027  RH  079%=      5-min Rain = 0
KVE1 081227Z 25002KT 01/M03 A2994 RMK A01 T00061026  RH  079%=      5-min Rain = 0
KVE1 081228Z 24002KT 01/M02 A2994 RMK A01 T00081023  RH  080%=      5-min Rain = 0
KVE1 081229Z 24002KT 01/M02 A2994 RMK A01 T00101021  RH  080%=      5-min Rain = 0
KVE1 081230Z 24001KT 01/M02 A2994 RMK A01 T00121022  RH  078%=      5-min Rain = 0
KVE1 081231Z 24001KT 01/M02 A2994 RMK A01 T00121024  RH  077%=      5-min Rain = 0
KVE1 081232Z 25002KT 01/M02 A2994 RMK A01 T00121024  RH  077%=      5-min Rain = 0
KVE1 081233Z 25001KT 01/M02 A2994 RMK A01 T00111024  RH  077%=      5-min Rain = 0
KVE1 081234Z 24001KT 01/M02 A2994 RMK A01 T00111024  RH  078%=      5-min Rain = 0
KVE1 081235Z 24002KT 01/M02 A2994 RMK A01 T00111024  RH  077%=      5-min Rain = 0
KVE1 081236Z 24002KT 01/M03 A2994 RMK A01 T00111025  RH  077%=      5-min Rain = 0
KVE1 081237Z 23003KT 01/M03 A2994 RMK A01 T00101026  RH  077%=      5-min Rain = 0
KVE1 081238Z 23003KT 01/M03 A2994 RMK A01 T00091026  RH  078%=      5-min Rain = 0
KVE1 081239Z 24004KT 01/M03 A2994 RMK A01 T00081026  RH  078%=      5-min Rain = 0
KVE1 081240Z 24004KT 01/M03 A2994 RMK A01 T00091025  RH  078%=      5-min Rain = 0
KVE1 081241Z 23004KT 01/M02 A2994 RMK A01 T00101024  RH  078%=      5-min Rain = 0
KVE1 081242Z 23004KT 01/M03 A2994 RMK A01 T00101025  RH  078%=      5-min Rain = 0
KVE1 081243Z 23005KT 01/M02 A2994 RMK A01 T00101024  RH  078%=      5-min Rain = 0
KVE1 081244Z 22006KT 01/M02 A2994 RMK A01 T00111024  RH  078%=      5-min Rain = 0
KVE1 081245Z 22006KT 01/M02 A2994 RMK A01 T00101024  RH  078%=      5-min Rain = 0
KVE1 081246Z 22006KT 01/M02 A2994 RMK A01 T00101024  RH  078%=      5-min Rain = 0
KVE1 081247Z 22005KT 01/M02 A2994 RMK A01 T00091024  RH  079%=      5-min Rain = 0
KVE1 081248Z 22005KT 01/M02 A2994 RMK A01 T00081024  RH  079%=      5-min Rain = 0
KVE1 081249Z 22005KT 01/M02 A2994 RMK A01 T00081024  RH  079%=      5-min Rain = 0
KVE1 081250Z 22004KT 01/M02 A2994 RMK A01 T00071024  RH  080%=      5-min Rain = 0
KVE1 081251Z 22004KT 01/M02 A2994 RMK A01 T00071023  RH  080%=      5-min Rain = 0
KVE1 081252Z 23003KT 01/M02 A2994 RMK A01 T00081023  RH  080%=      5-min Rain = 0
KVE1 081253Z 23003KT 01/M02 A2994 RMK A01 T00091021  RH  080%=      5-min Rain = 0
KVE1 081254Z 23003KT 01/M02 A2994 RMK A01 T00101020  RH  081%=      5-min Rain = 0
KVE1 081255Z 23004KT 01/M02 A2994 RMK A01 T00111019  RH  080%=      5-min Rain = 0
KVE1 081256Z 24004KT 01/M02 A2994 RMK A01 T00131017  RH  080%=      5-min Rain = 0
KVE1 081257Z 24004KT 02/M02 A2994 RMK A01 T00151016  RH  080%=      5-min Rain = 0
KVE1 081258Z 24004KT 02/M02 A2994 RMK A01 T00171016  RH  079%=      5-min Rain = 0
KVE1 081259Z 24005KT 02/M02 A2994 RMK A01 T00181015  RH  078%=      5-min Rain = 0
KVE1 081300Z 24004KT 02/M02 A2994 RMK A01 T00201015  RH  078%=      5-min Rain = 0
KVE1 081301Z 24004KT 02/M02 A2994 RMK A01 T00211015  RH  077%=      5-min Rain = 0
KVE1 081302Z 24004KT 02/M02 A2994 RMK A01 T00221015  RH  077%=      5-min Rain = 0
KVE1 081303Z 24004KT 02/M01 A2994 RMK A01 T00231014  RH  076%=      5-min Rain = 0
KVE1 081304Z 24004KT 03/M01 A2994 RMK A01 T00251014  RH  076%=      5-min Rain = 0
KVE1 081305Z 24004KT 03/M01 A2994 RMK A01 T00261014  RH  075%=      5-min Rain = 0
KVE1 081306Z 24004KT 03/M01 A2994 RMK A01 T00281013  RH  074%=      5-min Rain = 0
KVE1 081307Z 23005KT 03/M01 A2994 RMK A01 T00301013  RH  074%=      5-min Rain = 0
KVE1 081308Z 24004KT 03/M01 A2994 RMK A01 T00321012  RH  073%=      5-min Rain = 0
KVE1 081309Z 24004KT 03/M01 A2994 RMK A01 T00341012  RH  072%=      5-min Rain = 0
KVE1 081310Z 24004KT 04/M01 A2994 RMK A01 T00351011  RH  071%=      5-min Rain = 0
KVE1 081311Z 24004KT 04/M01 A2994 RMK A01 T00361011  RH  071%=      5-min Rain = 0
KVE1 081312Z 24004KT 04/M01 A2994 RMK A01 T00371011  RH  071%=      5-min Rain = 0
KVE1 081313Z 24004KT 04/M01 A2994 RMK A01 T00381011  RH  071%=      5-min Rain = 0
KVE1 081314Z 24004KT 04/M01 A2994 RMK A01 T00381010  RH  071%=      5-min Rain = 0
KVE1 081315Z 25004KT 04/M01 A2994 RMK A01 T00391008  RH  071%=      5-min Rain = 0
KVE1 081316Z 25003KT 04/M01 A2994 RMK A01 T00401009  RH  070%=      5-min Rain = 0
KVE1 081317Z 24002KT 04/M01 A2994 RMK A01 T00411009  RH  070%=      5-min Rain = 0
KVE1 081318Z 24002KT 04/M01 A2994 RMK A01 T00411006  RH  071%=      5-min Rain = 0
KVE1 081319Z 23001KT 04/M01 A2994 RMK A01 T00421006  RH  071%=      5-min Rain = 0
KVE1 081320Z 23001KT 04/M00 A2994 RMK A01 T00431003  RH  072%=      5-min Rain = 0
KVE1 081321Z 24000KT 04/M00 A2994 RMK A01 T00441002  RH  072%=      5-min Rain = 0
KVE1 081322Z 25001KT 05/M00 A2994 RMK A01 T00461001  RH  072%=      5-min Rain = 0
KVE1 081323Z 25001KT 05/00 A2994 RMK A01 T00480001  RH  071%=      5-min Rain = 0
KVE1 081324Z 27000KT 05/M00 A2994 RMK A01 T00491002  RH  070%=      5-min Rain = 0
KVE1 081325Z 31001KT 05/M00 A2994 RMK A01 T00501002  RH  069%=      5-min Rain = 0
KVE1 081326Z 33000KT 05/00 A2994 RMK A01 T00510001  RH  070%=      5-min Rain = 0
KVE1 081327Z 23001KT 05/00 A2994 RMK A01 T00530003  RH  070%=      5-min Rain = 0
KVE1 081328Z 22002KT 05/00 A2994 RMK A01 T00540002  RH  069%=      5-min Rain = 0
KVE1 081329Z 23003KT 06/M00 A2994 RMK A01 T00551001  RH  067%=      5-min Rain = 0
KVE1 081330Z 23002KT 06/00 A2994 RMK A01 T00560002  RH  068%=      5-min Rain = 0
KVE1 081331Z 23003KT 06/01 A2994 RMK A01 T00570005  RH  069%=      5-min Rain = 0
KVE1 081332Z 23004KT 06/01 A2994 RMK A01 T00590005  RH  068%=      5-min Rain = 0
KVE1 081333Z 23004KT 06/01 A2994 RMK A01 T00610005  RH  068%=      5-min Rain = 0
KVE1 081334Z 23005KT 06/00 A2994 RMK A01 T00620002  RH  065%=      5-min Rain = 0
KVE1 081335Z 23004KT 06/00 A2994 RMK A01 T00630002  RH  065%=      5-min Rain = 0
KVE1 081336Z 22004KT 06/01 A2994 RMK A01 T00640005  RH  066%=      5-min Rain = 0
KVE1 081337Z 23005KT 07/00 A2994 RMK A01 T00660004  RH  064%=      5-min Rain = 0
KVE1 081338Z 22004KT 07/00 A2994 RMK A01 T00670002  RH  063%=      5-min Rain = 0
KVE1 081339Z 23005KT 07/00 A2994 RMK A01 T00680002  RH  063%=      5-min Rain = 0
KVE1 081340Z 23005KT 07/00 A2994 RMK A01 T00680000  RH  062%=      5-min Rain = 0
KVE1 081341Z 24004KT 07/00 A2994 RMK A01 T00690003  RH  063%=      5-min Rain = 0
KVE1 081342Z 23005KT 07/00 A2994 RMK A01 T00700002  RH  062%=      5-min Rain = 0
KVE1 081343Z 23004KT 07/01 A2994 RMK A01 T00710005  RH  063%=      5-min Rain = 0
KVE1 081344Z 23005KT 07/00 A2994 RMK A01 T00720002  RH  061%=      5-min Rain = 0
KVE1 081345Z 23005KT 07/00 A2994 RMK A01 T00730003  RH  061%=      5-min Rain = 0
KVE1 081346Z 23004KT 07/00 A2994 RMK A01 T00740003  RH  061%=      5-min Rain = 0
KVE1 081347Z 23003KT 08/01 A2994 RMK A01 T00760005  RH  061%=      5-min Rain = 0
KVE1 081348Z 23004KT 08/00 A2994 RMK A01 T00770004  RH  060%=      5-min Rain = 0
KVE1 081349Z 22003KT 08/00 A2994 RMK A01 T00780002  RH  059%=      5-min Rain = 0
KVE1 081350Z 22003KT 08/01 A2994 RMK A01 T00790006  RH  060%=      5-min Rain = 0
KVE1 081351Z 22004KT 08/01 A2994 RMK A01 T00810008  RH  060%=      5-min Rain = 0
KVE1 081352Z 21004KT 08/01 A2994 RMK A01 T00820009  RH  060%=      5-min Rain = 0
KVE1 081353Z 22006KT 09/01 A2994 RMK A01 T00850008  RH  058%=      5-min Rain = 0
KVE1 081354Z 22006KT 09/00 A2994 RMK A01 T00870003  RH  056%=      5-min Rain = 0
KVE1 081355Z 21006KT 09/00 A2994 RMK A01 T00870003  RH  056%=      5-min Rain = 0
KVE1 081356Z 22006KT 09/00 A2994 RMK A01 T00890004  RH  055%=      5-min Rain = 0
KVE1 081357Z 22006KT 09/00 A2994 RMK A01 T00900003  RH  054%=      5-min Rain = 0
KVE1 081358Z 21005KT 09/01 A2994 RMK A01 T00900005  RH  055%=      5-min Rain = 0
KVE1 081359Z 22005KT 09/01 A2994 RMK A01 T00920009  RH  056%=      5-min Rain = 0
KVE1 081400Z 21006KT 09/01 A2994 RMK A01 T00940005  RH  054%=      5-min Rain = 0
KVE1 081401Z 21006KT 10/01 A2994 RMK A01 T00950007  RH  054%=      5-min Rain = 0
KVE1 081402Z 22006KT 10/00 A2994 RMK A01 T00960004  RH  053%=      5-min Rain = 0
KVE1 081403Z 22006KT 10/01 A2994 RMK A01 T00960005  RH  053%=      5-min Rain = 0
KVE1 081404Z 22006KT 10/01 A2994 RMK A01 T00970006  RH  053%=      5-min Rain = 0
KVE1 081405Z 22007KT 10/00 A2994 RMK A01 T00980004  RH  052%=      5-min Rain = 0
KVE1 081406Z 22006KT 10/00 A2994 RMK A01 T00980001  RH  051%=      5-min Rain = 0
KVE1 081407Z 22007KT 10/00 A2994 RMK A01 T00990001  RH  051%=      5-min Rain = 0
KVE1 081408Z 22007KT 10/00 A2994 RMK A01 T01000001  RH  050%=      5-min Rain = 0
KVE1 081409Z 22007KT 10/00 A2994 RMK A01 T01010002  RH  050%=      5-min Rain = 0
KVE1 081410Z 22007KT 10/00 A2994 RMK A01 T01020003  RH  050%=      5-min Rain = 0
KVE1 081411Z 22007KT 10/01 A2994 RMK A01 T01030005  RH  051%=      5-min Rain = 0
KVE1 081412Z 22007KT 10/00 A2994 RMK A01 T01040004  RH  050%=      5-min Rain = 0
KVE1 081413Z 22006KT 11/00 A2994 RMK A01 T01050004  RH  050%=      5-min Rain = 0
KVE1 081414Z 22007KT 11/00 A2994 RMK A01 T01060003  RH  049%=      5-min Rain = 0
KVE1 081415Z 22007KT 11/00 A2994 RMK A01 T01070003  RH  049%=      5-min Rain = 0
KVE1 081416Z 22007KT 11/01 A2994 RMK A01 T01090007  RH  049%=      5-min Rain = 0
KVE1 081417Z 22006KT 11/00 A2994 RMK A01 T01100004  RH  048%=      5-min Rain = 0
KVE1 081418Z 22007KT 11/00 A2994 RMK A01 T01100004  RH  048%=      5-min Rain = 0
KVE1 081419Z 22006KT 11/00 A2994 RMK A01 T01110004  RH  048%=      5-min Rain = 0
KVE1 081420Z 21007KT 11/01 A2994 RMK A01 T01120005  RH  048%=      5-min Rain = 0
KVE1 081421Z 21007KT 11/00 A2994 RMK A01 T01140003  RH  047%=      5-min Rain = 0
KVE1 081422Z 21007KT 11/00 A2994 RMK A01 T01140003  RH  046%=      5-min Rain = 0
KVE1 081423Z 21007KT 12/00 A2994 RMK A01 T01160003  RH  046%=      5-min Rain = 0
KVE1 081424Z 22007KT 12/00 A2994 RMK A01 T01170004  RH  046%=      5-min Rain = 0
KVE1 081425Z 22008KT 12/00 A2994 RMK A01 T01180001  RH  045%=      5-min Rain = 0
KVE1 081426Z 22007KT 12/00 A2994 RMK A01 T01180002  RH  045%=      5-min Rain = 0
KVE1 081427Z 22008KT 12/00 A2994 RMK A01 T01200003  RH  045%=      5-min Rain = 0
KVE1 081428Z 22008KT 12/00 A2994 RMK A01 T01210002  RH  044%=      5-min Rain = 0
KVE1 081429Z 21008KT 12/00 A2994 RMK A01 T01220000  RH  043%=      5-min Rain = 0
KVE1 081430Z 22008KT 12/00 A2994 RMK A01 T01230002  RH  043%=      5-min Rain = 0
KVE1 081431Z 22008KT 12/M00 A2994 RMK A01 T01231003  RH  042%=      5-min Rain = 0
KVE1 081432Z 21007KT 12/M00 A2994 RMK A01 T01231002  RH  042%=      5-min Rain = 0
KVE1 081433Z 21008KT 12/M00 A2994 RMK A01 T01241001  RH  042%=      5-min Rain = 0
KVE1 081434Z 22009KT 13/M00 A2994 RMK A01 T01251002  RH  042%=      5-min Rain = 0
KVE1 081435Z 22009KT 13/M00 A2994 RMK A01 T01251003  RH  041%=      5-min Rain = 0
KVE1 081436Z 21009KT 13/M00 A2994 RMK A01 T01261001  RH  042%=      5-min Rain = 0
KVE1 081437Z 21008KT 13/00 A2994 RMK A01 T01280001  RH  042%=      5-min Rain = 0
KVE1 081438Z 21007KT 13/00 A2994 RMK A01 T012800-0  RH  041%=      5-min Rain = 0
KVE1 081439Z 20007KT 13/00 A2994 RMK A01 T01280003  RH  042%=      5-min Rain = 0
KVE1 081440Z 22007KT 13/01 A2994 RMK A01 T01290005  RH  042%=      5-min Rain = 0
KVE1 081441Z 22008KT 13/00 A2994 RMK A01 T01300002  RH  041%=      5-min Rain = 0
KVE1 081442Z 20007KT 13/00 A2994 RMK A01 T01310003  RH  041%=      5-min Rain = 0
KVE1 081443Z 20009KT 13/M00 A2994 RMK A01 T01311001  RH  040%=      5-min Rain = 0
KVE1 081444Z 21008KT 13/00 A2994 RMK A01 T013100-0  RH  041%=      5-min Rain = 0
KVE1 081445Z 20008KT 13/M00 A2994 RMK A01 T01321001  RH  040%=      5-min Rain = 0
KVE1 081446Z 21009KT 13/M00 A2994 RMK A01 T01321004  RH  039%=      5-min Rain = 0
KVE1 081447Z 21008KT 13/M01 A2994 RMK A01 T01321006  RH  039%=      5-min Rain = 0
KVE1 081448Z 21009KT 13/M01 A2994 RMK A01 T01321005  RH  039%=      5-min Rain = 0
KVE1 081449Z 20009KT 13/M00 A2994 RMK A01 T01331001  RH  040%=      5-min Rain = 0
KVE1 081450Z 20009KT 13/M00 A2994 RMK A01 T01341002  RH  039%=      5-min Rain = 0
KVE1 081451Z 21008KT 13/M00 A2994 RMK A01 T01341001  RH  039%=      5-min Rain = 0
KVE1 081452Z 20008KT 14/00 A2994 RMK A01 T013500-0  RH  040%=      5-min Rain = 0
KVE1 081453Z 20008KT 14/M00 A2994 RMK A01 T01351004  RH  038%=      5-min Rain = 0
KVE1 081454Z 21007KT 13/M00 A2994 RMK A01 T01341002  RH  039%=      5-min Rain = 0
KVE1 081455Z 20008KT 13/M00 A2994 RMK A01 T01341002  RH  039%=      5-min Rain = 0
KVE1 081456Z 21007KT 14/00 A2994 RMK A01 T01360003  RH  040%=      5-min Rain = 0
KVE1 081457Z 21008KT 14/00 A2994 RMK A01 T01370001  RH  039%=      5-min Rain = 0
KVE1 081458Z 20007KT 14/00 A2994 RMK A01 T01370000  RH  039%=      5-min Rain = 0
KVE1 081459Z 20009KT 14/00 A2994 RMK A01 T01370004  RH  040%=      5-min Rain = 0
KVE1 081500Z 20008KT 14/00 A2994 RMK A01 T01370004  RH  040%=      5-min Rain = 0
KVE1 081501Z 21009KT 14/01 A2993 RMK A01 T01390009  RH  041%=      5-min Rain = 0
KVE1 081502Z 20009KT 14/01 A2993 RMK A01 T01410006  RH  040%=      5-min Rain = 0
KVE1 081503Z 21009KT 14/00 A2993 RMK A01 T01410004  RH  039%=      5-min Rain = 0
KVE1 081504Z 22009KT 14/00 A2993 RMK A01 T014000-0  RH  038%=      5-min Rain = 0
KVE1 081505Z 21008KT 14/00 A2993 RMK A01 T01390001  RH  039%=      5-min Rain = 0
KVE1 081506Z 20008KT 14/01 A2993 RMK A01 T01410007  RH  040%=      5-min Rain = 0
KVE1 081507Z 22009KT 14/01 A2993 RMK A01 T01440007  RH  039%=      5-min Rain = 0
KVE1 081508Z 22009KT 15/01 A2993 RMK A01 T01460005  RH  038%=      5-min Rain = 0
KVE1 081509Z 22009KT 15/00 A2993 RMK A01 T01460001  RH  037%=      5-min Rain = 0
KVE1 081510Z 21009KT 15/00 A2994 RMK A01 T01450002  RH  038%=      5-min Rain = 0
KVE1 081511Z 21008KT 15/M00 A2994 RMK A01 T01451003  RH  036%=      5-min Rain = 0
KVE1 081512Z 20007KT 14/00 A2994 RMK A01 T014400-0  RH  037%=      5-min Rain = 0
KVE1 081513Z 22010KT 14/00 A2994 RMK A01 T01440002  RH  038%=      5-min Rain = 0
KVE1 081514Z 23011KT 15/01 A2994 RMK A01 T01460006  RH  038%=      5-min Rain = 0
KVE1 081515Z 22011KT 15/01 A2994 RMK A01 T01480005  RH  038%=      5-min Rain = 0
KVE1 081516Z 21009KT 15/01 A2994 RMK A01 T01490005  RH  037%=      5-min Rain = 0
KVE1 081517Z 22008KT 15/00 A2994 RMK A01 T01500003  RH  037%=      5-min Rain = 0
KVE1 081518Z 20009KT 15/00 A2994 RMK A01 T01500003  RH  037%=      5-min Rain = 0
KVE1 081519Z 21008KT 15/00 A2994 RMK A01 T01500001  RH  036%=      5-min Rain = 0
KVE1 081520Z 21010KT 15/00 A2994 RMK A01 T01510001  RH  036%=      5-min Rain = 0
KVE1 081521Z 20010KT 15/M00 A2994 RMK A01 T01511002  RH  035%=      5-min Rain = 0
KVE1 081522Z 21009KT 15/M00 A2994 RMK A01 T01511002  RH  035%=      5-min Rain = 0
KVE1 081523Z 20011KT 15/M00 A2994 RMK A01 T01511001  RH  035%=      5-min Rain = 0
KVE1 081524Z 20011KT 15/M00 A2994 RMK A01 T01511004  RH  035%=      5-min Rain = 0
KVE1 081525Z 20011KT 15/00 A2994 RMK A01 T01510002  RH  036%=      5-min Rain = 0
KVE1 081526Z 19011KT 15/M00 A2994 RMK A01 T01541003  RH  034%=      5-min Rain = 0
KVE1 081527Z 20010KT 15/00 A2994 RMK A01 T01530000  RH  035%=      5-min Rain = 0
KVE1 081528Z 20010KT 16/M00 A2994 RMK A01 T01551001  RH  035%=      5-min Rain = 0
KVE1 081529Z 20010KT 15/M00 A2994 RMK A01 T01541001  RH  035%=      5-min Rain = 0
KVE1 081530Z 20008KT 15/M00 A2994 RMK A01 T01541001  RH  035%=      5-min Rain = 0
KVE1 081531Z 20009KT 15/M00 A2994 RMK A01 T01541004  RH  034%=      5-min Rain = 0
KVE1 081532Z 20009KT 15/M01 A2994 RMK A01 T01531007  RH  034%=      5-min Rain = 0
KVE1 081533Z 20011KT 15/M00 A2994 RMK A01 T01531003  RH  034%=      5-min Rain = 0
KVE1 081534Z 21010KT 15/00 A2993 RMK A01 T01540001  RH  035%=      5-min Rain = 0
KVE1 081535Z 20010KT 16/00 A2993 RMK A01 T01570003  RH  035%=      5-min Rain = 0
KVE1 081536Z 21009KT 16/00 A2993 RMK A01 T01580004  RH  035%=      5-min Rain = 0
KVE1 081537Z 21010KT 16/00 A2993 RMK A01 T01580000  RH  034%=      5-min Rain = 0
KVE1 081538Z 21010KT 16/00 A2993 RMK A01 T01560002  RH  035%=      5-min Rain = 0
KVE1 081539Z 20012KT 16/00 A2993 RMK A01 T01580004  RH  035%=      5-min Rain = 0
KVE1 081540Z 20011KT 16/M00 A2993 RMK A01 T01591002  RH  033%=      5-min Rain = 0
KVE1 081541Z 20009KT 16/01 A2993 RMK A01 T01590007  RH  035%=      5-min Rain = 0
KVE1 081542Z 21010KT 16/01 A2993 RMK A01 T01630010  RH  035%=      5-min Rain = 0
KVE1 081543Z 22010KT 16/M00 A2993 RMK A01 T01631001  RH  033%=      5-min Rain = 0
KVE1 081544Z 20009KT 16/M00 A2993 RMK A01 T01601002  RH  033%=      5-min Rain = 0
KVE1 081545Z 20009KT 16/00 A2993 RMK A01 T01580001  RH  034%=      5-min Rain = 0
KVE1 081546Z 22008KT 16/00 A2993 RMK A01 T01590001  RH  034%=      5-min Rain = 0
KVE1 081547Z 21008KT 16/00 A2993 RMK A01 T01600000  RH  034%=      5-min Rain = 0
KVE1 081548Z 20010KT 16/00 A2993 RMK A01 T01600000  RH  034%=      5-min Rain = 0
KVE1 081549Z 22009KT 16/M01 A2993 RMK A01 T01601006  RH  032%=      5-min Rain = 0
KVE1 081550Z 19009KT 16/M01 A2993 RMK A01 T01601008  RH  032%=      5-min Rain = 0
KVE1 081551Z 22009KT 16/M00 A2992 RMK A01 T01601004  RH  033%=      5-min Rain = 0
KVE1 081552Z 21010KT 16/M00 A2992 RMK A01 T01611002  RH  033%=      5-min Rain = 0
KVE1 081553Z 19012KT 16/M00 A2992 RMK A01 T01611004  RH  032%=      5-min Rain = 0
KVE1 081554Z 21011G16KT 16/M01 A2992 RMK A01 T01611011  RH  031%=      5-min Rain = 0
KVE1 081555Z 21010KT 16/M01 A2992 RMK A01 T01611012  RH  031%=      5-min Rain = 0
KVE1 081556Z 20009KT 16/M01 A2992 RMK A01 T01601006  RH  032%=      5-min Rain = 0
KVE1 081557Z 19013KT 16/M01 A2992 RMK A01 T01621007  RH  032%=      5-min Rain = 0
KVE1 081558Z 19010KT 16/M01 A2992 RMK A01 T01631014  RH  030%=      5-min Rain = 0
KVE1 081559Z 19011G16KT 16/M01 A2992 RMK A01 T01621014  RH  030%=      5-min Rain = 0
KVE1 081600Z 18012KT 16/M01 A2992 RMK A01 T01621012  RH  030%=      5-min Rain = 0
KVE1 081601Z 18011KT 17/M01 A2992 RMK A01 T01651008  RH  031%=      5-min Rain = 0
KVE1 081602Z 20008G13KT 17/M01 A2992 RMK A01 T01671013  RH  029%=      5-min Rain = 0
KVE1 081603Z 18010KT 17/M01 A2992 RMK A01 T01651011  RH  030%=      5-min Rain = 0
KVE1 081604Z 19010G15KT 17/M02 A2992 RMK A01 T01651018  RH  029%=      5-min Rain = 0
KVE1 081605Z 18007G12KT 16/M01 A2992 RMK A01 T01641012  RH  030%=      5-min Rain = 0
KVE1 081606Z 20011KT 17/M01 A2992 RMK A01 T01671007  RH  030%=      5-min Rain = 0
KVE1 081607Z 20014KT 17/M01 A2992 RMK A01 T01691009  RH  030%=      5-min Rain = 0
KVE1 081608Z 19012KT 17/M01 A2992 RMK A01 T01691010  RH  030%=      5-min Rain = 0
KVE1 081609Z 21012KT 17/M01 A2992 RMK A01 T01691009  RH  030%=      5-min Rain = 0
KVE1 081610Z 21008KT 17/M01 A2992 RMK A01 T01691011  RH  029%=      5-min Rain = 0
KVE1 081611Z 20008G15KT 17/M01 A2992 RMK A01 T01681006  RH  031%=      5-min Rain = 0
KVE1 081612Z 18013KT 17/M00 A2992 RMK A01 T01721004  RH  030%=      5-min Rain = 0
KVE1 081613Z 18010G15KT 17/M01 A2992 RMK A01 T01691014  RH  029%=      5-min Rain = 0
KVE1 081614Z 20009G14KT 17/M01 A2992 RMK A01 T01671006  RH  031%=      5-min Rain = 0
KVE1 081615Z 21015KT 17/M01 A2992 RMK A01 T01711005  RH  030%=      5-min Rain = 0
KVE1 081616Z 20013KT 17/M01 A2992 RMK A01 T01721010  RH  029%=      5-min Rain = 0
KVE1 081617Z 21013KT 17/M01 A2992 RMK A01 T01711008  RH  029%=      5-min Rain = 0
KVE1 081618Z 19012KT 17/M01 A2992 RMK A01 T01711007  RH  030%=      5-min Rain = 0
KVE1 081619Z 19013KT 17/M01 A2992 RMK A01 T01711011  RH  029%=      5-min Rain = 0
KVE1 081620Z 21010KT 17/M01 A2992 RMK A01 T01701012  RH  029%=      5-min Rain = 0
KVE1 081621Z 19010KT 17/M01 A2992 RMK A01 T01691009  RH  030%=      5-min Rain = 0
KVE1 081622Z 17010KT 17/M01 A2992 RMK A01 T01701014  RH  029%=      5-min Rain = 0
KVE1 081623Z 20012G17KT 17/M01 A2992 RMK A01 T01691014  RH  029%=      5-min Rain = 0
KVE1 081624Z 20012KT 17/M02 A2992 RMK A01 T01681016  RH  028%=      5-min Rain = 0
KVE1 081625Z 21012KT 17/M01 A2992 RMK A01 T01681010  RH  030%=      5-min Rain = 0
KVE1 081626Z 22014KT 17/M01 A2992 RMK A01 T01721007  RH  030%=      5-min Rain = 0
KVE1 081627Z 22014KT 17/M01 A2992 RMK A01 T01741009  RH  029%=      5-min Rain = 0
KVE1 081628Z 22013KT 18/M01 A2992 RMK A01 T01751010  RH  029%=      5-min Rain = 0
KVE1 081629Z 22011G16KT 17/M01 A2992 RMK A01 T01741014  RH  028%=      5-min Rain = 0
KVE1 081630Z 21011KT 17/M01 A2992 RMK A01 T01731009  RH  029%=      5-min Rain = 0
KVE1 081631Z 21008KT 17/M02 A2992 RMK A01 T01721015  RH  028%=      5-min Rain = 0
KVE1 081632Z 20011KT 17/M01 A2992 RMK A01 T01701008  RH  030%=      5-min Rain = 0
KVE1 081633Z 18011G16KT 17/M01 A2992 RMK A01 T01731008  RH  029%=      5-min Rain = 0
KVE1 081634Z 19008KT 17/M01 A2992 RMK A01 T01721012  RH  029%=      5-min Rain = 0
KVE1 081635Z 20010G15KT 17/M01 A2992 RMK A01 T01711011  RH  029%=      5-min Rain = 0
KVE1 081636Z 20014G19KT 17/M01 A2992 RMK A01 T01711006  RH  030%=      5-min Rain = 0
KVE1 081637Z 20014KT 17/M00 A2992 RMK A01 T01741004  RH  030%=      5-min Rain = 0
KVE1 081638Z 19012KT 18/M01 A2992 RMK A01 T01751011  RH  028%=      5-min Rain = 0
KVE1 081639Z 19011KT 17/M01 A2992 RMK A01 T01731014  RH  028%=      5-min Rain = 0
KVE1 081640Z 19012G19KT 17/M01 A2992 RMK A01 T01721009  RH  029%=      5-min Rain = 0
KVE1 081641Z 20013KT 17/M01 A2992 RMK A01 T01741008  RH  029%=      5-min Rain = 0
KVE1 081642Z 20010KT 17/M01 A2992 RMK A01 T01731014  RH  028%=      5-min Rain = 0
KVE1 081643Z 19011KT 17/M01 A2992 RMK A01 T01721013  RH  028%=      5-min Rain = 0
KVE1 081644Z 20012KT 17/M01 A2992 RMK A01 T01721010  RH  029%=      5-min Rain = 0
KVE1 081645Z 20014KT 18/M01 A2992 RMK A01 T01751007  RH  029%=      5-min Rain = 0
KVE1 081646Z 19010KT 18/M01 A2992 RMK A01 T01751009  RH  029%=      5-min Rain = 0
KVE1 081647Z 21009KT 18/M00 A2992 RMK A01 T01751001  RH  030%=      5-min Rain = 0
KVE1 081648Z 22011G16KT 18/01 A2992 RMK A01 T01800007  RH  031%=      5-min Rain = 0
KVE1 081649Z 21013KT 18/00 A2992 RMK A01 T01840002  RH  029%=      5-min Rain = 0
KVE1 081650Z 21011KT 18/M01 A2992 RMK A01 T01841005  RH  028%=      5-min Rain = 0
KVE1 081651Z 21010KT 18/M01 A2992 RMK A01 T01811006  RH  028%=      5-min Rain = 0
KVE1 081652Z 21010KT 18/00 A2992 RMK A01 T018200-0  RH  029%=      5-min Rain = 0
KVE1 081653Z 20010KT 18/M01 A2992 RMK A01 T01821005  RH  028%=      5-min Rain = 0
KVE1 081654Z 21014KT 18/M00 A2992 RMK A01 T01821002  RH  029%=      5-min Rain = 0
KVE1 081655Z 20010KT 18/M01 A2992 RMK A01 T01811010  RH  027%=      5-min Rain = 0
KVE1 081656Z 20011KT 18/M01 A2992 RMK A01 T01791005  RH  029%=      5-min Rain = 0
KVE1 081657Z 20015KT 18/M00 A2991 RMK A01 T01801003  RH  029%=      5-min Rain = 0
KVE1 081658Z 19014G19KT 18/M01 A2991 RMK A01 T01801010  RH  027%=      5-min Rain = 0
KVE1 081659Z 20014KT 18/M01 A2991 RMK A01 T01781009  RH  028%=      5-min Rain = 0
KVE1 081700Z 20012KT 18/M01 A2991 RMK A01 T01771012  RH  028%=      5-min Rain = 0
KVE1 081701Z 21014KT 18/M01 A2991 RMK A01 T01761011  RH  028%=      5-min Rain = 0
KVE1 081702Z 19013KT 18/M01 A2991 RMK A01 T01761008  RH  029%=      5-min Rain = 0
KVE1 081703Z 21008KT 18/M00 A2991 RMK A01 T01781004  RH  029%=      5-min Rain = 0
KVE1 081704Z 21009KT 18/00 A2991 RMK A01 T018100-0  RH  029%=      5-min Rain = 0
KVE1 081705Z 21010KT 18/M01 A2991 RMK A01 T01821006  RH  028%=      5-min Rain = 0
KVE1 081706Z 21011KT 18/M00 A2991 RMK A01 T01821002  RH  029%=      5-min Rain = 0
KVE1 081707Z 20011G16KT 18/M01 A2991 RMK A01 T01831010  RH  027%=      5-min Rain = 0
KVE1 081708Z 21012KT 18/M01 A2991 RMK A01 T01821006  RH  028%=      5-min Rain = 0
KVE1 081709Z 20012KT 18/M01 A2991 RMK A01 T01821005  RH  028%=      5-min Rain = 0
KVE1 081710Z 19010KT 18/M01 A2991 RMK A01 T01831005  RH  028%=      5-min Rain = 0
KVE1 081711Z 21012G17KT 18/M00 A2991 RMK A01 T01831001  RH  029%=      5-min Rain = 0
KVE1 081712Z 19012KT 19/01 A2991 RMK A01 T01880007  RH  030%=      5-min Rain = 0
KVE1 081713Z 19012KT 19/M01 A2991 RMK A01 T01901006  RH  027%=      5-min Rain = 0
KVE1 081714Z 21012KT 19/M01 A2991 RMK A01 T01881007  RH  027%=      5-min Rain = 0
KVE1 081715Z 21014KT 19/M01 A299 RMK A01 T01861014  RH  026%=      5-min Rain = 0
KVE1 081716Z 20013KT 19/M00 A299 RMK A01 T01871003  RH  028%=      5-min Rain = 0
KVE1 081717Z 19012KT 19/M00 A299 RMK A01 T01881004  RH  027%=      5-min Rain = 0
KVE1 081718Z 21010KT 19/M00 A299 RMK A01 T01871003  RH  028%=      5-min Rain = 0
KVE1 081719Z 20011KT 19/M00 A299 RMK A01 T01881004  RH  027%=      5-min Rain = 0
KVE1 081720Z 22010KT 19/M01 A299 RMK A01 T01861009  RH  027%=      5-min Rain = 0
KVE1 081721Z 20011G16KT 19/M01 A299 RMK A01 T01871005  RH  027%=      5-min Rain = 0
KVE1 081722Z 21012G18KT 19/M00 A299 RMK A01 T01871001  RH  028%=      5-min Rain = 0
KVE1 081723Z 21015KT 19/M01 A299 RMK A01 T01891009  RH  026%=      5-min Rain = 0
KVE1 081724Z 21010G15KT 19/M01 A299 RMK A01 T01891012  RH  026%=      5-min Rain = 0
KVE1 081725Z 22010KT 19/M01 A299 RMK A01 T01881007  RH  027%=      5-min Rain = 0
KVE1 081726Z 21012KT 19/M01 A299 RMK A01 T01901008  RH  026%=      5-min Rain = 0
KVE1 081727Z 22010KT 19/M01 A299 RMK A01 T01891010  RH  026%=      5-min Rain = 0
KVE1 081728Z 20010KT 19/00 A299 RMK A01 T01880000  RH  028%=      5-min Rain = 0
KVE1 081729Z 20011KT 19/00 A299 RMK A01 T01940002  RH  028%=      5-min Rain = 0
KVE1 081730Z 22008KT 19/M01 A299 RMK A01 T01931012  RH  025%=      5-min Rain = 0
KVE1 081731Z 22010KT 19/M01 A299 RMK A01 T01891010  RH  026%=      5-min Rain = 0
KVE1 081732Z 22010KT 19/M01 A299 RMK A01 T01891010  RH  026%=      5-min Rain = 0
KVE1 081733Z 22011KT 19/M00 A299 RMK A01 T01901002  RH  027%=      5-min Rain = 0
KVE1 081734Z 22012KT 19/M01 A299 RMK A01 T01921008  RH  026%=      5-min Rain = 0
KVE1 081735Z 20010KT 19/M00 A2989 RMK A01 T01941001  RH  027%=      5-min Rain = 0
KVE1 081736Z 22011G16KT 19/M00 A2989 RMK A01 T01941003  RH  027%=      5-min Rain = 0
KVE1 081737Z 23010KT 19/M01 A2989 RMK A01 T01941005  RH  026%=      5-min Rain = 0
KVE1 081738Z 20012KT 20/M00 A2989 RMK A01 T01951003  RH  026%=      5-min Rain = 0
KVE1 081739Z 21011G17KT 20/M01 A2989 RMK A01 T01951006  RH  026%=      5-min Rain = 0
KVE1 081740Z 21014KT 20/M01 A2989 RMK A01 T01951005  RH  026%=      5-min Rain = 0
KVE1 081741Z 20013KT 19/M01 A2989 RMK A01 T01931007  RH  026%=      5-min Rain = 0
KVE1 081742Z 20012G19KT 19/M01 A2989 RMK A01 T01931008  RH  026%=      5-min Rain = 0
KVE1 081743Z 20011KT 19/M01 A2989 RMK A01 T01911008  RH  026%=      5-min Rain = 0
KVE1 081744Z 19012G17KT 19/M00 A2989 RMK A01 T01921004  RH  027%=      5-min Rain = 0
KVE1 081745Z 20012G17KT 19/M01 A2989 RMK A01 T01931007  RH  026%=      5-min Rain = 0
KVE1 081746Z 20010G15KT 19/M01 A2989 RMK A01 T01931010  RH  026%=      5-min Rain = 0
KVE1 081747Z 21010KT 19/M00 A2989 RMK A01 T01931004  RH  027%=      5-min Rain = 0
KVE1 081748Z 20010G20KT 20/M00 A2989 RMK A01 T01951003  RH  027%=      5-min Rain = 0
KVE1 081749Z 20013KT 20/00 A2989 RMK A01 T01990002  RH  027%=      5-min Rain = 0
KVE1 081750Z 19011G16KT 20/M01 A2989 RMK A01 T01981010  RH  025%=      5-min Rain = 0
KVE1 081751Z 19013KT 20/M01 A2989 RMK A01 T01951010  RH  025%=      5-min Rain = 0
KVE1 081752Z 20012KT 19/M01 A2989 RMK A01 T01941005  RH  026%=      5-min Rain = 0
KVE1 081753Z 19013KT 20/M01 A2989 RMK A01 T01961006  RH  026%=      5-min Rain = 0
KVE1 081754Z 20013KT 20/M01 A2989 RMK A01 T01961006  RH  026%=      5-min Rain = 0
KVE1 081755Z 21013KT 20/00 A2989 RMK A01 T019900-0  RH  026%=      5-min Rain = 0
KVE1 081756Z 22014G20KT 20/M01 A2988 RMK A01 T02011005  RH  025%=      5-min Rain = 0
KVE1 081757Z 22010G15KT 20/M01 A2988 RMK A01 T02001012  RH  024%=      5-min Rain = 0
KVE1 081758Z 21010KT 20/M01 A2988 RMK A01 T01971011  RH  025%=      5-min Rain = 0
KVE1 081759Z 19009G15KT 20/M01 A2988 RMK A01 T01961008  RH  025%=      5-min Rain = 0
KVE1 081800Z 19013G19KT 20/M00 A2988 RMK A01 T01991002  RH  026%=      5-min Rain = 0
KVE1 081801Z 22013KT 20/M00 A2988 RMK A01 T02031003  RH  025%=      5-min Rain = 0
KVE1 081802Z 25013KT 21/M00 A2988 RMK A01 T02061002  RH  025%=      5-min Rain = 0
KVE1 081803Z 23011KT 21/M02 A2988 RMK A01 T02051015  RH  023%=      5-min Rain = 0
KVE1 081804Z 22014KT 20/M01 A2988 RMK A01 T02021012  RH  024%=      5-min Rain = 0
KVE1 081805Z 21015KT 20/M01 A2988 RMK A01 T02011013  RH  024%=      5-min Rain = 0
KVE1 081806Z 21012KT 20/M01 A2988 RMK A01 T02021013  RH  024%=      5-min Rain = 0
KVE1 081807Z 21012KT 20/M01 A2988 RMK A01 T02041011  RH  024%=      5-min Rain = 0
KVE1 081808Z 24010KT 21/M01 A2988 RMK A01 T02061010  RH  023%=      5-min Rain = 0
KVE1 081809Z 23010KT 21/M01 A2988 RMK A01 T02071010  RH  023%=      5-min Rain = 0
KVE1 081810Z 21012G18KT 21/M01 A2988 RMK A01 T02061014  RH  023%=      5-min Rain = 0
KVE1 081811Z 22013KT 21/M01 A2987 RMK A01 T02051013  RH  023%=      5-min Rain = 0
KVE1 081812Z 22012KT 21/M01 A2987 RMK A01 T02051013  RH  023%=      5-min Rain = 0
KVE1 081813Z 22012G18KT 21/M01 A2987 RMK A01 T02061009  RH  024%=      5-min Rain = 0
KVE1 081814Z 21013G19KT 21/M01 A2987 RMK A01 T02091010  RH  023%=      5-min Rain = 0
KVE1 081815Z 22015KT 21/M01 A2987 RMK A01 T02091010  RH  023%=      5-min Rain = 0
KVE1 081816Z 21012KT 21/M02 A2987 RMK A01 T02111017  RH  022%=      5-min Rain = 0
KVE1 081817Z 20010G15KT 21/M02 A2987 RMK A01 T02101022  RH  021%=      5-min Rain = 0
KVE1 081818Z 21013KT 21/M02 A2987 RMK A01 T02081019  RH  022%=      5-min Rain = 0
KVE1 081819Z 20009KT 21/M02 A2987 RMK A01 T02061024  RH  021%=      5-min Rain = 0
KVE1 081820Z 22010KT 20/M02 A2987 RMK A01 T02031021  RH  022%=      5-min Rain = 0
KVE1 081821Z 22010KT 20/M02 A2987 RMK A01 T02031021  RH  022%=      5-min Rain = 0
KVE1 081822Z 21008KT 20/M02 A2987 RMK A01 T02021024  RH  022%=      5-min Rain = 0
KVE1 081823Z 20008KT 20/M01 A2987 RMK A01 T02021013  RH  023%=      5-min Rain = 0
KVE1 081824Z 20009KT 21/M01 A2987 RMK A01 T02051011  RH  023%=      5-min Rain = 0
KVE1 081825Z 22013G18KT 21/M01 A2987 RMK A01 T02071012  RH  023%=      5-min Rain = 0
KVE1 081826Z 20011KT 21/M02 A2987 RMK A01 T02081018  RH  022%=      5-min Rain = 0
KVE1 081827Z 19009KT 21/M01 A2987 RMK A01 T02071013  RH  023%=      5-min Rain = 0
KVE1 081828Z 19009G14KT 21/M01 A2987 RMK A01 T02071014  RH  023%=      5-min Rain = 0
KVE1 081829Z 20007G12KT 21/M01 A2987 RMK A01 T02091005  RH  024%=      5-min Rain = 0
KVE1 081830Z 21011KT 21/M00 A2987 RMK A01 T02121002  RH  024%=      5-min Rain = 0
KVE1 081831Z 23011KT 22/M01 A2986 RMK A01 T02151006  RH  023%=      5-min Rain = 0
KVE1 081832Z 22012KT 22/M01 A2986 RMK A01 T02171011  RH  022%=      5-min Rain = 0
KVE1 081833Z 22011G16KT 22/M01 A2986 RMK A01 T02181009  RH  022%=      5-min Rain = 0
KVE1 081834Z 21011G16KT 22/M01 A2986 RMK A01 T02151012  RH  022%=      5-min Rain = 0
KVE1 081835Z 22011G16KT 22/M01 A2986 RMK A01 T02161008  RH  022%=      5-min Rain = 0
KVE1 081836Z 19010KT 22/M02 A2986 RMK A01 T02161018  RH  021%=      5-min Rain = 0
KVE1 081837Z 21009KT 21/M01 A2986 RMK A01 T02121011  RH  022%=      5-min Rain = 0
KVE1 081838Z 21011KT 22/M01 A2986 RMK A01 T02151009  RH  022%=      5-min Rain = 0
KVE1 081839Z 21008KT 21/M02 A2986 RMK A01 T02141015  RH  021%=      5-min Rain = 0
KVE1 081840Z 20013G18KT 21/M01 A2986 RMK A01 T02141007  RH  023%=      5-min Rain = 0
KVE1 081841Z 21015KT 22/M01 A2986 RMK A01 T02161012  RH  022%=      5-min Rain = 0
KVE1 081842Z 21011G16KT 22/M02 A2986 RMK A01 T02171018  RH  021%=      5-min Rain = 0
KVE1 081843Z 22012KT 22/M01 A2986 RMK A01 T02161010  RH  022%=      5-min Rain = 0
KVE1 081844Z 21010KT 22/M02 A2986 RMK A01 T02181015  RH  021%=      5-min Rain = 0
KVE1 081845Z 19008KT 22/M02 A2986 RMK A01 T02151024  RH  020%=      5-min Rain = 0
KVE1 081846Z 19010KT 21/M02 A2986 RMK A01 T02121021  RH  021%=      5-min Rain = 0
KVE1 081847Z 22013G18KT 21/M02 A2986 RMK A01 T02121022  RH  021%=      5-min Rain = 0
KVE1 081848Z 20009KT 21/M02 A2986 RMK A01 T02141021  RH  021%=      5-min Rain = 0
KVE1 081849Z 22009KT 22/M02 A2985 RMK A01 T02151017  RH  021%=      5-min Rain = 0
KVE1 081850Z 23009KT 22/M02 A2985 RMK A01 T02161022  RH  020%=      5-min Rain = 0
KVE1 081851Z 26011KT 22/M02 A2985 RMK A01 T02171019  RH  020%=      5-min Rain = 0
KVE1 081852Z 24010KT 22/M03 A2985 RMK A01 T02161029  RH  019%=      5-min Rain = 0
KVE1 081853Z 23007KT 21/M02 A2985 RMK A01 T02141021  RH  021%=      5-min Rain = 0
KVE1 081854Z 21008KT 22/M02 A2985 RMK A01 T02151024  RH  020%=      5-min Rain = 0
KVE1 081855Z 21008KT 22/M02 A2985 RMK A01 T02161020  RH  021%=      5-min Rain = 0
KVE1 081856Z 22009KT 22/M02 A2985 RMK A01 T02181022  RH  020%=      5-min Rain = 0
KVE1 081857Z 18009KT 22/M03 A2985 RMK A01 T02191025  RH  019%=      5-min Rain = 0
KVE1 081858Z 20009KT 22/M03 A2985 RMK A01 T02171025  RH  020%=      5-min Rain = 0
KVE1 081859Z 22011KT 22/M02 A2985 RMK A01 T02171017  RH  021%=      5-min Rain = 0
KVE1 081900Z 24011KT 22/M03 A2985 RMK A01 T02201033  RH  018%=      5-min Rain = 0
KVE1 081901Z 24008KT 22/M04 A2985 RMK A01 T02191043  RH  017%=      5-min Rain = 0
KVE1 081902Z 25007KT 22/M04 A2985 RMK A01 T02181040  RH  017%=      5-min Rain = 0
KVE1 081903Z 23004KT 22/M04 A2984 RMK A01 T02181038  RH  018%=      5-min Rain = 0
KVE1 081904Z 20009G15KT 22/M04 A2984 RMK A01 T02181035  RH  018%=      5-min Rain = 0
KVE1 081905Z 19009G15KT 22/M03 A2984 RMK A01 T02191030  RH  019%=      5-min Rain = 0
KVE1 081906Z 24006KT 22/M03 A2984 RMK A01 T02171031  RH  019%=      5-min Rain = 0
KVE1 081907Z 25012KT 22/M03 A2984 RMK A01 T02171032  RH  019%=      5-min Rain = 0
KVE1 081908Z 24014KT 22/M04 A2984 RMK A01 T02181036  RH  018%=      5-min Rain = 0
KVE1 081909Z 25014KT 22/M04 A2984 RMK A01 T02201040  RH  017%=      5-min Rain = 0
KVE1 081910Z 25012KT 22/M04 A2984 RMK A01 T02211038  RH  017%=      5-min Rain = 0
KVE1 081911Z 26010KT 22/M04 A2984 RMK A01 T02221043  RH  017%=      5-min Rain = 0
KVE1 081912Z 25008KT 22/M05 A2984 RMK A01 T02221048  RH  016%=      5-min Rain = 0
KVE1 081913Z 24009KT 22/M04 A2984 RMK A01 T02211041  RH  017%=      5-min Rain = 0
KVE1 081914Z 24005KT 22/M05 A2984 RMK A01 T02211054  RH  015%=      5-min Rain = 0
KVE1 081915Z 26003KT 22/M05 A2984 RMK A01 T02191051  RH  016%=      5-min Rain = 0
KVE1 081916Z 25005KT 22/M05 A2984 RMK A01 T02181045  RH  017%=      5-min Rain = 0
KVE1 081917Z 24009KT 22/M03 A2984 RMK A01 T02211029  RH  019%=      5-min Rain = 0
KVE1 081918Z 24008KT 22/M06 A2984 RMK A01 T02241060  RH  014%=      5-min Rain = 0
KVE1 081919Z 23008KT 22/M06 A2984 RMK A01 T02221058  RH  015%=      5-min Rain = 0
KVE1 081920Z 25005KT 22/M06 A2984 RMK A01 T02201056  RH  015%=      5-min Rain = 0
KVE1 081921Z 26004KT 22/M06 A2983 RMK A01 T02211057  RH  015%=      5-min Rain = 0
KVE1 081922Z 24003KT 22/M06 A2983 RMK A01 T02211061  RH  015%=      5-min Rain = 0
KVE1 081923Z 22008KT 22/M05 A2983 RMK A01 T02201045  RH  017%=      5-min Rain = 0
KVE1 081924Z 22008KT 22/M03 A2983 RMK A01 T02221034  RH  018%=      5-min Rain = 0
KVE1 081925Z 20009KT 22/M02 A2983 RMK A01 T02241022  RH  019%=      5-min Rain = 0
KVE1 081926Z 21008KT 23/M03 A2983 RMK A01 T02281026  RH  018%=      5-min Rain = 0
KVE1 081927Z 24008KT 23/M03 A2983 RMK A01 T02281028  RH  018%=      5-min Rain = 0
KVE1 081928Z 25010KT 23/M04 A2983 RMK A01 T02281041  RH  016%=      5-min Rain = 0
KVE1 081929Z 24010KT 23/M05 A2983 RMK A01 T02281048  RH  016%=      5-min Rain = 0
KVE1 081930Z 25008KT 22/M06 A2983 RMK A01 T02241055  RH  015%=      5-min Rain = 0
KVE1 081931Z 25007G15KT 22/M05 A2983 RMK A01 T02241048  RH  016%=      5-min Rain = 0
KVE1 081932Z 24010KT 23/M05 A2983 RMK A01 T02261050  RH  015%=      5-min Rain = 0
KVE1 081933Z 22005KT 23/M06 A2983 RMK A01 T02251064  RH  014%=      5-min Rain = 0
KVE1 081934Z 24005G10KT 22/M06 A2982 RMK A01 T02231059  RH  015%=      5-min Rain = 0
KVE1 081935Z 24011G17KT 22/M05 A2982 RMK A01 T02241048  RH  016%=      5-min Rain = 0
KVE1 081936Z 24012KT 23/M04 A2982 RMK A01 T02291035  RH  017%=      5-min Rain = 0
KVE1 081937Z 23013KT 23/M05 A2982 RMK A01 T02301050  RH  015%=      5-min Rain = 0
KVE1 081938Z 22010KT 23/M06 A2982 RMK A01 T02271056  RH  015%=      5-min Rain = 0
KVE1 081939Z 21011KT 23/M05 A2982 RMK A01 T02261046  RH  016%=      5-min Rain = 0
KVE1 081940Z 21011KT 23/M05 A2982 RMK A01 T02281053  RH  015%=      5-min Rain = 0
KVE1 081941Z 20008KT 23/M05 A2982 RMK A01 T02271051  RH  015%=      5-min Rain = 0
KVE1 081942Z 20008KT 23/M05 A2982 RMK A01 T02271047  RH  016%=      5-min Rain = 0
KVE1 081943Z 21006G12KT 23/M06 A2982 RMK A01 T02281056  RH  015%=      5-min Rain = 0
KVE1 081944Z 22010KT 23/M03 A2982 RMK A01 T02311031  RH  017%=      5-min Rain = 0
KVE1 081945Z 21010KT 23/M05 A2982 RMK A01 T02341049  RH  015%=      5-min Rain = 0
KVE1 081946Z 21007KT 23/M06 A2982 RMK A01 T02301059  RH  014%=      5-min Rain = 0
KVE1 081947Z 21004KT 23/M05 A2982 RMK A01 T02291050  RH  015%=      5-min Rain = 0
KVE1 081948Z 21005KT 23/M05 A2981 RMK A01 T02301050  RH  015%=      5-min Rain = 0
KVE1 081949Z 21003KT 23/M05 A2981 RMK A01 T02311047  RH  015%=      5-min Rain = 0
KVE1 081950Z 21005KT 23/M05 A2981 RMK A01 T02321051  RH  015%=      5-min Rain = 0
KVE1 081951Z 22010KT 23/M05 A2981 RMK A01 T02331047  RH  015%=      5-min Rain = 0
KVE1 081952Z 22012KT 23/M04 A2981 RMK A01 T02341041  RH  016%=      5-min Rain = 0
KVE1 081953Z 23007KT 23/M05 A2981 RMK A01 T02331046  RH  015%=      5-min Rain = 0
KVE1 081954Z 20011KT 23/M04 A2981 RMK A01 T02301044  RH  016%=      5-min Rain = 0
KVE1 081955Z 20008KT 23/M04 A2981 RMK A01 T02301038  RH  016%=      5-min Rain = 0
KVE1 081956Z 20008KT 23/M03 A2981 RMK A01 T02311032  RH  017%=      5-min Rain = 0
KVE1 081957Z 22006KT 23/M04 A2981 RMK A01 T02341035  RH  016%=      5-min Rain = 0
KVE1 081958Z 22011G18KT 24/M03 A2981 RMK A01 T02361027  RH  017%=      5-min Rain = 0
KVE1 081959Z 21012KT 24/M03 A2981 RMK A01 T02391029  RH  017%=      5-min Rain = 0
KVE1 082000Z 22011G16KT 24/M04 A298 RMK A01 T02411040  RH  015%=      5-min Rain = 0
KVE1 082001Z 22015G20KT 24/M04 A298 RMK A01 T02401035  RH  016%=      5-min Rain = 0
KVE1 082002Z 22013G19KT 24/M04 A298 RMK A01 T02381036  RH  016%=      5-min Rain = 0
KVE1 082003Z 21014G22KT 24/M04 A298 RMK A01 T02381044  RH  015%=      5-min Rain = 0
KVE1 082004Z 23014KT 24/M03 A298 RMK A01 T02391031  RH  016%=      5-min Rain = 0
KVE1 082005Z 23012KT 24/M05 A298 RMK A01 T02421045  RH  015%=      5-min Rain = 0
KVE1 082006Z 24013KT 24/M04 A298 RMK A01 T02401039  RH  015%=      5-min Rain = 0
KVE1 082007Z 24012KT 24/M05 A298 RMK A01 T02391046  RH  015%=      5-min Rain = 0
KVE1 082008Z 24009KT 24/M04 A298 RMK A01 T02371040  RH  015%=      5-min Rain = 0
KVE1 082009Z 26009KT 24/M04 A298 RMK A01 T02381043  RH  015%=      5-min Rain = 0
KVE1 082010Z 24010KT 24/M04 A298 RMK A01 T02381043  RH  015%=      5-min Rain = 0
KVE1 082011Z 22007KT 24/M05 A298 RMK A01 T02371045  RH  015%=      5-min Rain = 0
KVE1 082012Z 19005KT 24/M05 A298 RMK A01 T02361050  RH  014%=      5-min Rain = 0
KVE1 082013Z 22005KT 24/M05 A298 RMK A01 T02351048  RH  015%=      5-min Rain = 0
KVE1 082014Z 23009KT 24/M04 A298 RMK A01 T02361038  RH  016%=      5-min Rain = 0
KVE1 082015Z 20010KT 24/M03 A298 RMK A01 T02391030  RH  017%=      5-min Rain = 0
KVE1 082016Z 21013G20KT 24/M03 A298 RMK A01 T02431031  RH  016%=      5-min Rain = 0
KVE1 082017Z 21008KT 24/M05 A298 RMK A01 T02431048  RH  014%=      5-min Rain = 0
KVE1 082018Z 23009KT 24/M05 A298 RMK A01 T02391048  RH  014%=      5-min Rain = 0
KVE1 082019Z 24005KT 24/M05 A298 RMK A01 T02351050  RH  015%=      5-min Rain = 0
KVE1 082020Z 22005G10KT 24/M04 A2979 RMK A01 T02351044  RH  015%=      5-min Rain = 0
KVE1 082021Z 20008KT 24/M04 A2979 RMK A01 T02361036  RH  016%=      5-min Rain = 0
KVE1 082022Z 20010G15KT 24/M04 A2979 RMK A01 T02381036  RH  016%=      5-min Rain = 0
KVE1 082023Z 22010KT 24/M04 A2979 RMK A01 T02381042  RH  015%=      5-min Rain = 0
KVE1 082024Z 23013KT 24/M04 A2979 RMK A01 T02391042  RH  015%=      5-min Rain = 0
KVE1 082025Z 22011KT 24/M06 A2979 RMK A01 T02381055  RH  014%=      5-min Rain = 0
KVE1 082026Z 22012KT 24/M04 A2979 RMK A01 T02371042  RH  015%=      5-min Rain = 0
KVE1 082027Z 22017KT 24/M05 A2979 RMK A01 T02391048  RH  014%=      5-min Rain = 0
KVE1 082028Z 24012KT 24/M06 A2979 RMK A01 T02401055  RH  014%=      5-min Rain = 0
KVE1 082029Z 22012KT 24/M05 A2979 RMK A01 T02391054  RH  014%=      5-min Rain = 0
KVE1 082030Z 23011KT 24/M05 A2979 RMK A01 T02401050  RH  014%=      5-min Rain = 0
KVE1 082031Z 24012G18KT 24/M05 A2979 RMK A01 T02401050  RH  014%=      5-min Rain = 0
KVE1 082032Z 24014G19KT 24/M05 A2979 RMK A01 T02401053  RH  014%=      5-min Rain = 0
KVE1 082033Z 22009KT 24/M06 A2979 RMK A01 T02391057  RH  014%=      5-min Rain = 0
KVE1 082034Z 23008G15KT 24/M05 A2979 RMK A01 T02371054  RH  014%=      5-min Rain = 0
KVE1 082035Z 24014KT 24/M04 A2978 RMK A01 T02401039  RH  015%=      5-min Rain = 0
KVE1 082036Z 24013KT 25/M04 A2978 RMK A01 T02451041  RH  015%=      5-min Rain = 0
KVE1 082037Z 26015KT 25/M04 A2978 RMK A01 T02501042  RH  014%=      5-min Rain = 0
KVE1 082038Z 24015KT 25/M05 A2978 RMK A01 T02481054  RH  013%=      5-min Rain = 0
KVE1 082039Z 22014KT 25/M04 A2978 RMK A01 T02471042  RH  014%=      5-min Rain = 0
KVE1 082040Z 23012KT 25/M04 A2978 RMK A01 T02471040  RH  015%=      5-min Rain = 0
KVE1 082041Z 23011KT 25/M05 A2978 RMK A01 T02461053  RH  013%=      5-min Rain = 0
KVE1 082042Z 24010KT 25/M04 A2978 RMK A01 T02451044  RH  014%=      5-min Rain = 0
KVE1 082043Z 22011KT 25/M04 A2978 RMK A01 T02461044  RH  014%=      5-min Rain = 0
KVE1 082044Z 22009KT 25/M05 A2978 RMK A01 T02461048  RH  014%=      5-min Rain = 0
KVE1 082045Z 22008KT 25/M04 A2978 RMK A01 T02451042  RH  015%=      5-min Rain = 0
KVE1 082046Z 23008KT 25/M04 A2978 RMK A01 T02451042  RH  015%=      5-min Rain = 0
KVE1 082047Z 23008KT 25/M04 A2978 RMK A01 T02451044  RH  014%=      5-min Rain = 0
KVE1 082048Z 21009G14KT 24/M05 A2978 RMK A01 T02431047  RH  014%=      5-min Rain = 0
KVE1 082049Z 20009KT 24/M04 A2978 RMK A01 T02431040  RH  015%=      5-min Rain = 0
KVE1 082050Z 19008KT 24/M05 A2978 RMK A01 T02441047  RH  014%=      5-min Rain = 0
KVE1 082051Z 21007KT 24/M05 A2978 RMK A01 T02421049  RH  014%=      5-min Rain = 0
KVE1 082052Z 24007KT 24/M05 A2978 RMK A01 T02401050  RH  014%=      5-min Rain = 0
KVE1 082053Z 24007KT 24/M05 A2978 RMK A01 T02401051  RH  014%=      5-min Rain = 0
KVE1 082054Z 24010KT 24/M05 A2978 RMK A01 T02391051  RH  014%=      5-min Rain = 0
KVE1 082055Z 25014KT 24/M05 A2977 RMK A01 T02411047  RH  014%=      5-min Rain = 0
KVE1 082056Z 26011G16KT 25/M05 A2978 RMK A01 T02471052  RH  013%=      5-min Rain = 0
KVE1 082057Z 25011KT 25/M06 A2978 RMK A01 T02501058  RH  013%=      5-min Rain = 0
KVE1 082058Z 25011KT 25/M06 A2977 RMK A01 T02481064  RH  012%=      5-min Rain = 0
KVE1 082059Z 24010KT 25/M05 A2977 RMK A01 T02471047  RH  014%=      5-min Rain = 0
KVE1 082100Z 24010KT 25/M05 A2977 RMK A01 T02491054  RH  013%=      5-min Rain = 0
KVE1 082101Z 25009KT 25/M07 A2977 RMK A01 T02471068  RH  012%=      5-min Rain = 0
KVE1 082102Z 24010G15KT 25/M05 A2977 RMK A01 T02451046  RH  014%=      5-min Rain = 0
KVE1 082103Z 26012G17KT 25/M05 A2977 RMK A01 T02481051  RH  013%=      5-min Rain = 0
KVE1 082104Z 24016KT 25/M05 A2977 RMK A01 T02491049  RH  014%=      5-min Rain = 0
KVE1 082105Z 24012KT 25/M05 A2977 RMK A01 T02491047  RH  014%=      5-min Rain = 0
KVE1 082106Z 23013KT 25/M05 A2977 RMK A01 T02491046  RH  014%=      5-min Rain = 0
KVE1 082107Z 21016G22KT 25/M05 A2977 RMK A01 T02491047  RH  014%=      5-min Rain = 0
KVE1 082108Z 22019G24KT 25/M05 A2977 RMK A01 T02491051  RH  013%=      5-min Rain = 0
KVE1 082109Z 21011KT 25/M05 A2977 RMK A01 T02481053  RH  013%=      5-min Rain = 0
KVE1 082110Z 21007KT 25/M07 A2977 RMK A01 T02451065  RH  012%=      5-min Rain = 0
KVE1 082111Z 22007KT 24/M06 A2977 RMK A01 T02431055  RH  013%=      5-min Rain = 0
KVE1 082112Z 24007KT 25/M05 A2977 RMK A01 T02451050  RH  014%=      5-min Rain = 0
KVE1 082113Z 20006KT 25/M06 A2977 RMK A01 T02471055  RH  013%=      5-min Rain = 0
KVE1 082114Z 22008KT 25/M05 A2977 RMK A01 T02471051  RH  013%=      5-min Rain = 0
KVE1 082115Z 21008KT 25/M05 A2977 RMK A01 T02471052  RH  013%=      5-min Rain = 0
KVE1 082116Z 22009KT 25/M05 A2976 RMK A01 T02491052  RH  013%=      5-min Rain = 0
KVE1 082117Z 23011KT 25/M05 A2976 RMK A01 T02511048  RH  014%=      5-min Rain = 0
KVE1 082118Z 24011G17KT 25/M05 A2976 RMK A01 T02521050  RH  013%=      5-min Rain = 0
KVE1 082119Z 26010KT 25/M05 A2976 RMK A01 T02541047  RH  013%=      5-min Rain = 0
KVE1 082120Z 28014KT 26/M05 A2976 RMK A01 T02571053  RH  013%=      5-min Rain = 0
KVE1 082121Z 27014KT 26/M07 A2976 RMK A01 T02551067  RH  011%=      5-min Rain = 0
KVE1 082122Z 26011KT 25/M07 A2976 RMK A01 T02511067  RH  012%=      5-min Rain = 0
KVE1 082123Z 27012G17KT 25/M07 A2976 RMK A01 T02501065  RH  012%=      5-min Rain = 0
KVE1 082124Z 28009KT 25/M07 A2976 RMK A01 T02491073  RH  011%=      5-min Rain = 0
KVE1 082125Z 27008KT 25/M06 A2976 RMK A01 T02491064  RH  012%=      5-min Rain = 0
KVE1 082126Z 28009KT 25/M06 A2976 RMK A01 T02511061  RH  012%=      5-min Rain = 0
KVE1 082127Z 26008KT 25/M06 A2976 RMK A01 T02521063  RH  012%=      5-min Rain = 0
KVE1 082128Z 25011KT 25/M06 A2976 RMK A01 T02531055  RH  013%=      5-min Rain = 0
KVE1 082129Z 24016KT 25/M06 A2976 RMK A01 T02541055  RH  013%=      5-min Rain = 0
KVE1 082130Z 23015G21KT 25/M06 A2976 RMK A01 T02531058  RH  012%=      5-min Rain = 0
KVE1 082131Z 22015KT 25/M06 A2976 RMK A01 T02541056  RH  012%=      5-min Rain = 0
KVE1 082132Z 22014KT 25/M07 A2976 RMK A01 T02521067  RH  012%=      5-min Rain = 0
KVE1 082133Z 22012KT 25/M05 A2976 RMK A01 T02511053  RH  013%=      5-min Rain = 0
KVE1 082134Z 22011KT 25/M06 A2976 RMK A01 T02511060  RH  012%=      5-min Rain = 0
KVE1 082135Z 22013KT 25/M06 A2976 RMK A01 T02501058  RH  012%=      5-min Rain = 0
KVE1 082136Z 24013KT 25/M07 A2976 RMK A01 T02501070  RH  011%=      5-min Rain = 0
KVE1 082137Z 25009KT 25/M07 A2976 RMK A01 T02481072  RH  011%=      5-min Rain = 0
KVE1 082138Z 23010KT 25/M07 A2976 RMK A01 T02481067  RH  012%=      5-min Rain = 0
KVE1 082139Z 22011KT 25/M07 A2976 RMK A01 T02481065  RH  012%=      5-min Rain = 0
KVE1 082140Z 23008KT 25/M07 A2976 RMK A01 T02501065  RH  012%=      5-min Rain = 0
KVE1 082141Z 25007KT 25/M07 A2975 RMK A01 T02491072  RH  011%=      5-min Rain = 0
KVE1 082142Z 25008KT 25/M06 A2975 RMK A01 T02481062  RH  012%=      5-min Rain = 0
KVE1 082143Z 24011KT 25/M06 A2975 RMK A01 T02491064  RH  012%=      5-min Rain = 0
KVE1 082144Z 24009KT 25/M06 A2975 RMK A01 T02491062  RH  012%=      5-min Rain = 0
KVE1 082145Z 23010KT 25/M06 A2975 RMK A01 T02491057  RH  013%=      5-min Rain = 0
KVE1 082146Z 24011KT 25/M06 A2975 RMK A01 T02501061  RH  012%=      5-min Rain = 0
KVE1 082147Z 25011G16KT 25/M06 A2975 RMK A01 T02501059  RH  012%=      5-min Rain = 0
KVE1 082148Z 25015KT 25/M07 A2975 RMK A01 T02521065  RH  012%=      5-min Rain = 0
KVE1 082149Z 25016KT 25/M07 A2975 RMK A01 T02531068  RH  011%=      5-min Rain = 0
KVE1 082150Z 25016KT 25/M07 A2975 RMK A01 T02531065  RH  012%=      5-min Rain = 0
KVE1 082151Z 25014G19KT 25/M07 A2975 RMK A01 T02531073  RH  011%=      5-min Rain = 0
KVE1 082152Z 26011KT 25/M07 A2975 RMK A01 T02511073  RH  011%=      5-min Rain = 0
KVE1 082153Z 26010KT 25/M07 A2975 RMK A01 T02511065  RH  012%=      5-min Rain = 0
KVE1 082154Z 25009KT 25/M08 A2975 RMK A01 T02511081  RH  010%=      5-min Rain = 0
KVE1 082155Z 25009KT 25/M08 A2975 RMK A01 T02471084  RH  010%=      5-min Rain = 0
KVE1 082156Z 25012KT 25/M08 A2975 RMK A01 T02461075  RH  011%=      5-min Rain = 0
KVE1 082157Z 24013KT 25/M07 A2975 RMK A01 T02471067  RH  012%=      5-min Rain = 0
KVE1 082158Z 23013KT 25/M06 A2975 RMK A01 T02501055  RH  013%=      5-min Rain = 0
KVE1 082159Z 22011KT 25/M07 A2975 RMK A01 T02511069  RH  012%=      5-min Rain = 0
KVE1 082200Z 22010KT 25/M07 A2975 RMK A01 T02491072  RH  011%=      5-min Rain = 0
KVE1 082201Z 23009KT 25/M08 A2975 RMK A01 T02461077  RH  011%=      5-min Rain = 0
KVE1 082202Z 24010KT 25/M07 A2974 RMK A01 T02451072  RH  012%=      5-min Rain = 0
KVE1 082203Z 24008KT 25/M07 A2974 RMK A01 T02451074  RH  011%=      5-min Rain = 0
KVE1 082204Z 25010KT 25/M06 A2974 RMK A01 T02461060  RH  013%=      5-min Rain = 0
KVE1 082205Z 21010G15KT 25/M06 A2974 RMK A01 T02491062  RH  012%=      5-min Rain = 0
KVE1 082206Z 22011KT 25/M06 A2974 RMK A01 T02501056  RH  013%=      5-min Rain = 0
KVE1 082207Z 22010KT 25/M07 A2974 RMK A01 T02501072  RH  011%=      5-min Rain = 0
KVE1 082208Z 22007KT 25/M07 A2974 RMK A01 T02481066  RH  012%=      5-min Rain = 0
KVE1 082209Z 22008KT 25/M06 A2974 RMK A01 T02501058  RH  013%=      5-min Rain = 0
KVE1 082210Z 22006KT 25/M06 A2974 RMK A01 T02511059  RH  012%=      5-min Rain = 0
KVE1 082211Z 22007KT 25/M05 A2974 RMK A01 T02521052  RH  013%=      5-min Rain = 0
KVE1 082212Z 22009G14KT 25/M05 A2974 RMK A01 T02541051  RH  013%=      5-min Rain = 0
KVE1 082213Z 23014KT 25/M06 A2974 RMK A01 T02541056  RH  012%=      5-min Rain = 0
KVE1 082214Z 24015G20KT 25/M06 A2974 RMK A01 T02541060  RH  012%=      5-min Rain = 0
KVE1 082215Z 22014KT 25/M07 A2974 RMK A01 T02521067  RH  012%=      5-min Rain = 0
KVE1 082216Z 20014KT 25/M06 A2974 RMK A01 T02511064  RH  012%=      5-min Rain = 0
KVE1 082217Z 21013KT 25/M06 A2974 RMK A01 T02521057  RH  012%=      5-min Rain = 0
KVE1 082218Z 21012KT 25/M07 A2974 RMK A01 T02521069  RH  011%=      5-min Rain = 0
KVE1 082219Z 22009KT 25/M07 A2974 RMK A01 T02501069  RH  012%=      5-min Rain = 0
KVE1 082220Z 23011KT 25/M06 A2974 RMK A01 T02491064  RH  012%=      5-min Rain = 0
KVE1 082221Z 23009KT 25/M07 A2974 RMK A01 T02501071  RH  011%=      5-min Rain = 0
KVE1 082222Z 23008KT 25/M07 A2974 RMK A01 T02501067  RH  012%=      5-min Rain = 0
KVE1 082223Z 22008KT 25/M07 A2974 RMK A01 T02501070  RH  011%=      5-min Rain = 0
KVE1 082224Z 23010KT 25/M06 A2974 RMK A01 T02501064  RH  012%=      5-min Rain = 0
KVE1 082225Z 22012KT 25/M07 A2974 RMK A01 T02501067  RH  012%=      5-min Rain = 0
KVE1 082226Z 22015KT 25/M06 A2974 RMK A01 T02511059  RH  012%=      5-min Rain = 0
KVE1 082227Z 24016KT 25/M06 A2974 RMK A01 T02521059  RH  012%=      5-min Rain = 0
KVE1 082228Z 24013KT 25/M07 A2974 RMK A01 T02521068  RH  011%=      5-min Rain = 0
KVE1 082229Z 24013KT 25/M07 A2974 RMK A01 T02521065  RH  012%=      5-min Rain = 0
KVE1 082230Z 23011KT 25/M07 A2973 RMK A01 T02521066  RH  012%=      5-min Rain = 0
KVE1 082231Z 23010KT 25/M06 A2973 RMK A01 T02511061  RH  012%=      5-min Rain = 0
KVE1 082232Z 23013KT 25/M06 A2973 RMK A01 T02521060  RH  012%=      5-min Rain = 0
KVE1 082233Z 22012KT 25/M06 A2973 RMK A01 T02521058  RH  012%=      5-min Rain = 0
KVE1 082234Z 21010G15KT 25/M07 A2973 RMK A01 T02521070  RH  011%=      5-min Rain = 0
KVE1 082235Z 21010KT 25/M06 A2973 RMK A01 T02511062  RH  012%=      5-min Rain = 0
KVE1 082236Z 23010KT 25/M05 A2973 RMK A01 T02521053  RH  013%=      5-min Rain = 0
KVE1 082237Z 23009KT 25/M07 A2973 RMK A01 T02531068  RH  011%=      5-min Rain = 0
KVE1 082238Z 22009KT 25/M07 A2973 RMK A01 T02521069  RH  011%=      5-min Rain = 0
KVE1 082239Z 24010KT 25/M07 A2973 RMK A01 T02501069  RH  012%=      5-min Rain = 0
KVE1 082240Z 23010KT 25/M07 A2973 RMK A01 T02501069  RH  012%=      5-min Rain = 0
KVE1 082241Z 23007KT 25/M07 A2973 RMK A01 T02501070  RH  011%=      5-min Rain = 0
KVE1 082242Z 23007KT 25/M06 A2973 RMK A01 T02501059  RH  012%=      5-min Rain = 0
KVE1 082243Z 20006KT 25/M06 A2973 RMK A01 T02511055  RH  013%=      5-min Rain = 0
KVE1 082244Z 20007KT 25/M06 A2973 RMK A01 T02521064  RH  012%=      5-min Rain = 0
KVE1 082245Z 22012KT 25/M06 A2973 RMK A01 T02521062  RH  012%=      5-min Rain = 0
KVE1 082246Z 23015G20KT 25/M07 A2973 RMK A01 T02521065  RH  012%=      5-min Rain = 0
KVE1 082247Z 25013KT 25/M07 A2973 RMK A01 T02521070  RH  011%=      5-min Rain = 0
KVE1 082248Z 25011KT 25/M08 A2973 RMK A01 T02511077  RH  011%=      5-min Rain = 0
KVE1 082249Z 25009KT 25/M08 A2973 RMK A01 T02501077  RH  011%=      5-min Rain = 0
KVE1 082250Z 23007KT 25/M07 A2973 RMK A01 T02491065  RH  012%=      5-min Rain = 0
KVE1 082251Z 22005KT 25/M07 A2973 RMK A01 T02511068  RH  012%=      5-min Rain = 0
KVE1 082252Z 21007KT 25/M07 A2972 RMK A01 T02511067  RH  012%=      5-min Rain = 0
KVE1 082253Z 22008KT 25/M06 A2972 RMK A01 T02511063  RH  012%=      5-min Rain = 0
KVE1 082254Z 22007KT 25/M07 A2972 RMK A01 T02521068  RH  012%=      5-min Rain = 0
KVE1 082255Z 22011KT 25/M07 A2972 RMK A01 T02521065  RH  012%=      5-min Rain = 0
KVE1 082256Z 21013G18KT 25/M07 A2972 RMK A01 T02511066  RH  012%=      5-min Rain = 0
KVE1 082257Z 19007KT 25/M07 A2972 RMK A01 T02501074  RH  011%=      5-min Rain = 0
KVE1 082258Z 22009KT 25/M07 A2972 RMK A01 T02501067  RH  012%=      5-min Rain = 0
KVE1 082259Z 22012KT 25/M06 A2972 RMK A01 T02501061  RH  012%=      5-min Rain = 0
KVE1 082300Z 21013G18KT 25/M06 A2972 RMK A01 T02511064  RH  012%=      5-min Rain = 0
KVE1 082301Z 21012KT 25/M07 A2972 RMK A01 T02511069  RH  011%=      5-min Rain = 0
KVE1 082302Z 22008KT 25/M08 A2972 RMK A01 T02501079  RH  011%=      5-min Rain = 0
KVE1 082303Z 22004KT 25/M07 A2972 RMK A01 T02491074  RH  011%=      5-min Rain = 0
KVE1 082304Z 22003KT 25/M08 A2972 RMK A01 T02491084  RH  010%=      5-min Rain = 0
KVE1 082305Z 20005G10KT 25/M07 A2972 RMK A01 T02491065  RH  012%=      5-min Rain = 0
KVE1 082306Z 18010KT 25/M06 A2972 RMK A01 T02501064  RH  012%=      5-min Rain = 0
KVE1 082307Z 20012KT 25/M06 A2972 RMK A01 T02501062  RH  012%=      5-min Rain = 0
KVE1 082308Z 22012KT 25/M06 A2972 RMK A01 T02511064  RH  012%=      5-min Rain = 0
KVE1 082309Z 20011KT 25/M06 A2972 RMK A01 T02511057  RH  013%=      5-min Rain = 0
KVE1 082310Z 21010KT 25/M06 A2972 RMK A01 T02521057  RH  013%=      5-min Rain = 0
KVE1 082311Z 22009KT 25/M07 A2972 RMK A01 T02521069  RH  011%=      5-min Rain = 0
KVE1 082312Z 22008KT 25/M08 A2972 RMK A01 T02501077  RH  011%=      5-min Rain = 0
KVE1 082313Z 19010KT 25/M07 A2972 RMK A01 T02491065  RH  012%=      5-min Rain = 0
KVE1 082314Z 20011KT 25/M07 A2972 RMK A01 T02491072  RH  011%=      5-min Rain = 0
KVE1 082315Z 21008KT 25/M07 A2972 RMK A01 T02491073  RH  011%=      5-min Rain = 0
KVE1 082316Z 21008KT 25/M07 A2972 RMK A01 T02491065  RH  012%=      5-min Rain = 0
KVE1 082317Z 21010KT 25/M07 A2972 RMK A01 T02491068  RH  012%=      5-min Rain = 0
KVE1 082318Z 20008KT 25/M08 A2972 RMK A01 T02491076  RH  011%=      5-min Rain = 0
KVE1 082319Z 21006KT 25/M07 A2971 RMK A01 T02481073  RH  011%=      5-min Rain = 0
KVE1 082320Z 21006KT 25/M06 A2971 RMK A01 T02481062  RH  012%=      5-min Rain = 0
KVE1 082321Z 21006KT 25/M06 A2971 RMK A01 T02491064  RH  012%=      5-min Rain = 0
KVE1 082322Z 21007KT 25/M07 A2971 RMK A01 T02491067  RH  012%=      5-min Rain = 0
KVE1 082323Z 20006KT 25/M07 A2971 RMK A01 T02491066  RH  012%=      5-min Rain = 0
KVE1 082324Z 19006KT 25/M07 A2971 RMK A01 T02491074  RH  011%=      5-min Rain = 0
KVE1 082325Z 20006KT 25/M06 A2971 RMK A01 T02491064  RH  012%=      5-min Rain = 0
KVE1 082326Z 20008KT 25/M06 A2971 RMK A01 T02491064  RH  012%=      5-min Rain = 0
KVE1 082327Z 21007KT 25/M06 A2971 RMK A01 T02491062  RH  012%=      5-min Rain = 0
KVE1 082328Z 20010KT 25/M06 A2971 RMK A01 T02491061  RH  012%=      5-min Rain = 0
KVE1 082329Z 21009KT 25/M06 A2971 RMK A01 T02491063  RH  012%=      5-min Rain = 0
KVE1 082330Z 21009KT 25/M06 A2971 RMK A01 T02491062  RH  012%=      5-min Rain = 0
KVE1 082331Z 22009KT 25/M06 A2971 RMK A01 T02491058  RH  013%=      5-min Rain = 0
KVE1 082332Z 22009KT 25/M06 A2971 RMK A01 T02491055  RH  013%=      5-min Rain = 0
KVE1 082333Z 22009KT 25/M05 A2971 RMK A01 T02491054  RH  013%=      5-min Rain = 0
KVE1 082334Z 21008KT 25/M07 A2971 RMK A01 T02491067  RH  012%=      5-min Rain = 0
KVE1 082335Z 20007KT 25/M07 A2971 RMK A01 T02491074  RH  011%=      5-min Rain = 0
KVE1 082336Z 20007KT 25/M08 A2971 RMK A01 T02481075  RH  011%=      5-min Rain = 0
KVE1 082337Z 20007KT 25/M07 A2971 RMK A01 T02481073  RH  011%=      5-min Rain = 0
KVE1 082338Z 20008KT 25/M07 A2971 RMK A01 T02481069  RH  012%=      5-min Rain = 0
KVE1 082339Z 21007KT 25/M07 A2971 RMK A01 T02481070  RH  012%=      5-min Rain = 0
KVE1 082340Z 21009KT 25/M08 A2971 RMK A01 T02481076  RH  011%=      5-min Rain = 0
KVE1 082341Z 21007KT 25/M08 A2971 RMK A01 T02471077  RH  011%=      5-min Rain = 0
KVE1 082342Z 22005KT 25/M08 A2971 RMK A01 T02471077  RH  011%=      5-min Rain = 0
KVE1 082343Z 22005G10KT 25/M06 A297 RMK A01 T02471064  RH  012%=      5-min Rain = 0
KVE1 082344Z 20007KT 25/M06 A297 RMK A01 T02471062  RH  012%=      5-min Rain = 0
KVE1 082345Z 20008KT 25/M06 A297 RMK A01 T02481057  RH  013%=      5-min Rain = 0
KVE1 082346Z 20008KT 25/M06 A297 RMK A01 T02471057  RH  013%=      5-min Rain = 0
KVE1 082347Z 20008KT 25/M06 A297 RMK A01 T02471064  RH  012%=      5-min Rain = 0
KVE1 082348Z 19010KT 25/M06 A297 RMK A01 T02471062  RH  012%=      5-min Rain = 0
KVE1 082349Z 17011KT 25/M07 A297 RMK A01 T02461065  RH  012%=      5-min Rain = 0
KVE1 082350Z 17010KT 25/M07 A297 RMK A01 T02461066  RH  012%=      5-min Rain = 0
KVE1 082351Z 17009KT 25/M08 A297 RMK A01 T02451078  RH  011%=      5-min Rain = 0
KVE1 082352Z 17008KT 25/M07 A297 RMK A01 T02451069  RH  012%=      5-min Rain = 0
KVE1 082353Z 18007KT 24/M06 A297 RMK A01 T02441062  RH  013%=      5-min Rain = 0
KVE1 082354Z 17005KT 24/M07 A297 RMK A01 T02441069  RH  012%=      5-min Rain = 0
KVE1 082355Z 19006KT 24/M06 A297 RMK A01 T02441059  RH  013%=      5-min Rain = 0
KVE1 082356Z 19006KT 24/M06 A297 RMK A01 T02441059  RH  013%=      5-min Rain = 0
KVE1 082357Z 19007KT 24/M06 A297 RMK A01 T02441064  RH  012%=      5-min Rain = 0
KVE1 082358Z 19007KT 24/M08 A297 RMK A01 T02441075  RH  011%=      5-min Rain = 0
KVE1 082359Z 18006KT 24/M07 A297 RMK A01 T02431065  RH  012%=      5-min Rain = 0
KVE1 090000Z 16006KT 24/M06 A297 RMK A01 T02431059  RH  013%=      5-min Rain = 0
KVE1 090001Z 16006KT 24/M05 A297 RMK A01 T02431050  RH  014%=      5-min Rain = 0
KVE1 090002Z 16006KT 24/M05 A297 RMK A01 T02421048  RH  014%=      5-min Rain = 0
KVE1 090003Z 16006KT 24/M05 A2969 RMK A01 T02421046  RH  014%=      5-min Rain = 0
KVE1 090004Z 16006KT 24/M04 A2969 RMK A01 T02411044  RH  015%=      5-min Rain = 0
KVE1 090005Z 17005KT 24/M06 A2969 RMK A01 T02401063  RH  013%=      5-min Rain = 0
KVE1 090006Z 17005KT 24/M06 A2969 RMK A01 T02401057  RH  013%=      5-min Rain = 0
KVE1 090007Z 17006KT 24/M05 A2969 RMK A01 T02401053  RH  014%=      5-min Rain = 0
KVE1 090008Z 18006KT 24/M06 A2969 RMK A01 T02401056  RH  013%=      5-min Rain = 0
KVE1 090009Z 17007KT 24/M05 A2969 RMK A01 T02401050  RH  014%=      5-min Rain = 0
KVE1 090010Z 17008KT 24/M05 A2969 RMK A01 T02391053  RH  014%=      5-min Rain = 0
KVE1 090011Z 18006KT 24/M06 A2969 RMK A01 T02381059  RH  013%=      5-min Rain = 0
KVE1 090012Z 18005KT 24/M06 A2969 RMK A01 T02381061  RH  013%=      5-min Rain = 0
KVE1 090013Z 18005KT 24/M05 A2969 RMK A01 T02381053  RH  014%=      5-min Rain = 0
KVE1 090014Z 17007KT 24/M06 A2969 RMK A01 T02381056  RH  014%=      5-min Rain = 0
KVE1 090015Z 17006KT 24/M05 A2969 RMK A01 T02371052  RH  014%=      5-min Rain = 0
KVE1 090016Z 18005KT 24/M05 A2969 RMK A01 T02371051  RH  014%=      5-min Rain = 0
KVE1 090017Z 17005KT 24/M05 A2969 RMK A01 T02361050  RH  015%=      5-min Rain = 0
KVE1 090018Z 17004KT 24/M04 A2969 RMK A01 T02351042  RH  015%=      5-min Rain = 0
KVE1 090019Z 17006KT 23/M04 A2969 RMK A01 T02341043  RH  016%=      5-min Rain = 0
KVE1 090020Z 17006KT 23/M05 A2969 RMK A01 T02331048  RH  015%=      5-min Rain = 0
KVE1 090021Z 17006KT 23/M06 A2969 RMK A01 T02331055  RH  014%=      5-min Rain = 0
KVE1 090022Z 17007KT 23/M05 A2969 RMK A01 T02331051  RH  015%=      5-min Rain = 0
KVE1 090023Z 17007KT 23/M05 A2969 RMK A01 T02321053  RH  014%=      5-min Rain = 0
KVE1 090024Z 17006KT 23/M05 A2969 RMK A01 T02321052  RH  015%=      5-min Rain = 0
KVE1 090025Z 17005KT 23/M04 A2969 RMK A01 T02311043  RH  016%=      5-min Rain = 0
KVE1 090026Z 17005KT 23/M05 A2969 RMK A01 T02291046  RH  016%=      5-min Rain = 0
KVE1 090027Z 16005KT 23/M04 A2969 RMK A01 T02281042  RH  016%=      5-min Rain = 0
KVE1 090028Z 16005KT 23/M05 A2969 RMK A01 T02281049  RH  015%=      5-min Rain = 0
KVE1 090029Z 16005KT 23/M04 A2969 RMK A01 T02271037  RH  017%=      5-min Rain = 0
KVE1 090030Z 16005KT 23/M03 A2969 RMK A01 T02261034  RH  017%=      5-min Rain = 0
KVE1 090031Z 16006KT 23/M03 A2969 RMK A01 T02251030  RH  018%=      5-min Rain = 0
KVE1 090032Z 16006KT 22/M03 A2969 RMK A01 T02231028  RH  018%=      5-min Rain = 0
KVE1 090033Z 16006KT 22/M03 A2969 RMK A01 T02211028  RH  019%=      5-min Rain = 0
KVE1 090034Z 17005KT 22/M02 A2969 RMK A01 T02191024  RH  019%=      5-min Rain = 0
KVE1 090035Z 17006KT 22/M02 A2969 RMK A01 T02171022  RH  020%=      5-min Rain = 0
KVE1 090036Z 16006KT 22/M02 A2969 RMK A01 T02151016  RH  021%=      5-min Rain = 0
KVE1 090037Z 16006KT 21/M02 A2969 RMK A01 T02131018  RH  021%=      5-min Rain = 0
KVE1 090038Z 16006KT 21/M02 A2969 RMK A01 T02121021  RH  021%=      5-min Rain = 0
KVE1 090039Z 15006KT 21/M02 A2969 RMK A01 T02111021  RH  021%=      5-min Rain = 0
KVE1 090040Z 15006KT 21/M02 A2969 RMK A01 T02101022  RH  021%=      5-min Rain = 0
KVE1 090041Z 16005KT 21/M02 A2969 RMK A01 T02091021  RH  021%=      5-min Rain = 0
KVE1 090042Z 15005KT 21/M02 A2969 RMK A01 T02081023  RH  021%=      5-min Rain = 0
KVE1 090043Z 15005KT 21/M03 A2969 RMK A01 T02081026  RH  021%=      5-min Rain = 0
KVE1 090044Z 16005KT 21/M02 A2969 RMK A01 T02081023  RH  021%=      5-min Rain = 0
KVE1 090045Z 15005KT 21/M02 A2969 RMK A01 T02071017  RH  022%=      5-min Rain = 0
KVE1 090046Z 15005KT 21/M02 A2969 RMK A01 T02051023  RH  021%=      5-min Rain = 0
KVE1 090047Z 15005KT 21/M02 A2969 RMK A01 T02051024  RH  021%=      5-min Rain = 0
KVE1 090048Z 15005KT 20/M02 A2969 RMK A01 T02041018  RH  022%=      5-min Rain = 0
KVE1 090049Z 15005KT 20/M02 A2969 RMK A01 T02031019  RH  022%=      5-min Rain = 0
KVE1 090050Z 16005KT 20/M02 A2969 RMK A01 T02021020  RH  022%=      5-min Rain = 0
KVE1 090051Z 15006KT 20/M03 A2969 RMK A01 T02011026  RH  021%=      5-min Rain = 0
KVE1 090052Z 16006KT 20/M02 A2969 RMK A01 T02011019  RH  023%=      5-min Rain = 0
KVE1 090053Z 16005KT 20/M01 A2969 RMK A01 T01991006  RH  025%=      5-min Rain = 0
KVE1 090054Z 16005KT 20/M02 A2969 RMK A01 T01961019  RH  023%=      5-min Rain = 0
KVE1 090055Z 15005KT 19/M02 A2969 RMK A01 T01941020  RH  023%=      5-min Rain = 0
KVE1 090056Z 16005KT 19/M03 A2969 RMK A01 T01941028  RH  022%=      5-min Rain = 0
KVE1 090057Z 16004KT 19/M03 A2969 RMK A01 T01931025  RH  023%=      5-min Rain = 0
KVE1 090058Z 16004KT 19/M03 A2969 RMK A01 T01921027  RH  022%=      5-min Rain = 0
KVE1 090059Z 16004KT 19/M03 A2969 RMK A01 T01921025  RH  023%=      5-min Rain = 0
KVE1 090100Z 16003KT 19/M02 A2969 RMK A01 T01901024  RH  023%=      5-min Rain = 0
KVE1 090101Z 15004KT 19/M02 A2969 RMK A01 T01891018  RH  025%=      5-min Rain = 0
KVE1 090102Z 14006KT 19/M01 A2969 RMK A01 T01861011  RH  026%=      5-min Rain = 0
KVE1 090103Z 14006KT 18/M01 A2969 RMK A01 T01821008  RH  028%=      5-min Rain = 0
KVE1 090104Z 14006KT 18/M02 A2969 RMK A01 T01781018  RH  026%=      5-min Rain = 0
KVE1 090105Z 15007KT 18/M02 A2969 RMK A01 T01781024  RH  025%=      5-min Rain = 0
KVE1 090106Z 15007KT 18/M02 A2969 RMK A01 T01771015  RH  027%=      5-min Rain = 0
KVE1 090107Z 15007KT 17/M02 A2969 RMK A01 T01731018  RH  027%=      5-min Rain = 0
KVE1 090108Z 15006KT 17/M02 A2969 RMK A01 T01711023  RH  026%=      5-min Rain = 0
KVE1 090109Z 15006KT 17/M02 A2969 RMK A01 T01701022  RH  027%=      5-min Rain = 0
KVE1 090110Z 15005KT 17/M02 A2969 RMK A01 T01671019  RH  028%=      5-min Rain = 0
KVE1 090111Z 14006KT 17/M03 A2969 RMK A01 T01661026  RH  027%=      5-min Rain = 0
KVE1 090112Z 14006KT 17/M03 A2969 RMK A01 T01691027  RH  026%=      5-min Rain = 0
KVE1 090113Z 15006KT 17/M03 A2969 RMK A01 T01701028  RH  026%=      5-min Rain = 0
KVE1 090114Z 15007KT 17/M03 A2969 RMK A01 T01711025  RH  026%=      5-min Rain = 0
KVE1 090115Z 15007KT 17/M02 A2969 RMK A01 T01691019  RH  028%=      5-min Rain = 0
KVE1 090116Z 15008KT 16/M02 A2969 RMK A01 T01631020  RH  028%=      5-min Rain = 0
KVE1 090117Z 15007KT 16/M02 A2969 RMK A01 T01601022  RH  029%=      5-min Rain = 0
KVE1 090118Z 15007KT 16/M03 A2969 RMK A01 T01581026  RH  028%=      5-min Rain = 0
KVE1 090119Z 15008KT 16/M04 A2969 RMK A01 T01621038  RH  025%=      5-min Rain = 0
KVE1 090120Z 14008KT 17/M03 A2969 RMK A01 T01661029  RH  026%=      5-min Rain = 0
KVE1 090121Z 15008KT 16/M03 A2969 RMK A01 T01641029  RH  027%=      5-min Rain = 0
KVE1 090122Z 15008KT 16/M04 A2969 RMK A01 T01631036  RH  025%=      5-min Rain = 0
KVE1 090123Z 15007KT 17/M03 A2969 RMK A01 T01651031  RH  026%=      5-min Rain = 0
KVE1 090124Z 14007KT 16/M04 A2969 RMK A01 T01631037  RH  025%=      5-min Rain = 0
KVE1 090125Z 15007KT 16/M03 A2969 RMK A01 T01641033  RH  026%=      5-min Rain = 0
KVE1 090126Z 15007KT 16/M04 A2969 RMK A01 T01631035  RH  026%=      5-min Rain = 0
KVE1 090127Z 14007KT 16/M03 A2969 RMK A01 T01611029  RH  027%=      5-min Rain = 0
KVE1 090128Z 14007KT 16/M03 A2969 RMK A01 T01581029  RH  028%=      5-min Rain = 0
KVE1 090129Z 15007KT 16/M03 A2969 RMK A01 T01551028  RH  028%=      5-min Rain = 0
KVE1 090130Z 15007KT 15/M03 A2969 RMK A01 T01541028  RH  029%=      5-min Rain = 0
KVE1 090131Z 14008KT 15/M03 A2969 RMK A01 T01511027  RH  029%=      5-min Rain = 0
KVE1 090132Z 15008KT 15/M03 A2969 RMK A01 T01501026  RH  030%=      5-min Rain = 0
KVE1 090133Z 14008KT 15/M03 A2969 RMK A01 T01481032  RH  029%=      5-min Rain = 0
KVE1 090134Z 15008KT 15/M04 A2969 RMK A01 T01501035  RH  028%=      5-min Rain = 0
KVE1 090135Z 15008KT 15/M04 A2969 RMK A01 T01521039  RH  027%=      5-min Rain = 0
KVE1 090136Z 14008KT 15/M04 A2969 RMK A01 T01541039  RH  026%=      5-min Rain = 0
KVE1 090137Z 14008KT 16/M04 A2969 RMK A01 T01551037  RH  026%=      5-min Rain = 0
KVE1 090138Z 14008KT 15/M03 A2969 RMK A01 T01521034  RH  028%=      5-min Rain = 0
KVE1 090139Z 14007KT 15/M04 A2969 RMK A01 T01491035  RH  028%=      5-min Rain = 0
KVE1 090140Z 14007KT 15/M03 A2969 RMK A01 T01471034  RH  029%=      5-min Rain = 0
KVE1 090141Z 14007KT 15/M03 A2969 RMK A01 T01451034  RH  029%=      5-min Rain = 0
KVE1 090142Z 14007KT 14/M04 A2969 RMK A01 T01441036  RH  029%=      5-min Rain = 0
KVE1 090143Z 14007KT 15/M04 A2969 RMK A01 T01461037  RH  028%=      5-min Rain = 0
KVE1 090144Z 14007KT 15/M03 A2969 RMK A01 T01461028  RH  030%=      5-min Rain = 0
KVE1 090145Z 14008KT 14/M03 A2969 RMK A01 T01431031  RH  030%=      5-min Rain = 0
KVE1 090146Z 14008KT 14/M03 A2969 RMK A01 T01431033  RH  029%=      5-min Rain = 0
KVE1 090147Z 14008KT 14/M04 A2969 RMK A01 T01431035  RH  029%=      5-min Rain = 0
KVE1 090148Z 14007KT 14/M03 A2969 RMK A01 T01431031  RH  030%=      5-min Rain = 0
KVE1 090149Z 14007KT 14/M03 A2969 RMK A01 T01401032  RH  030%=      5-min Rain = 0
KVE1 090150Z 14007KT 14/M04 A2969 RMK A01 T01381035  RH  030%=      5-min Rain = 0
KVE1 090151Z 14007KT 14/M04 A2969 RMK A01 T01421040  RH  028%=      5-min Rain = 0
KVE1 090152Z 14007KT 14/M04 A2969 RMK A01 T01441038  RH  028%=      5-min Rain = 0
KVE1 090153Z 14007KT 14/M03 A2969 RMK A01 T01441033  RH  029%=      5-min Rain = 0
KVE1 090154Z 15007KT 14/M03 A2969 RMK A01 T01421034  RH  029%=      5-min Rain = 0
KVE1 090155Z 14007KT 14/M03 A2969 RMK A01 T01391031  RH  031%=      5-min Rain = 0
KVE1 090156Z 15007KT 14/M03 A2969 RMK A01 T01371032  RH  031%=      5-min Rain = 0
KVE1 090157Z 14007KT 14/M04 A2969 RMK A01 T01361036  RH  030%=      5-min Rain = 0
KVE1 090158Z 14008KT 14/M04 A2969 RMK A01 T01391039  RH  029%=      5-min Rain = 0
KVE1 090159Z 14009KT 14/M04 A2969 RMK A01 T01401038  RH  029%=      5-min Rain = 0
KVE1 090200Z 14010KT 14/M04 A2969 RMK A01 T01411040  RH  028%=      5-min Rain = 0
KVE1 090201Z 14009KT 14/M04 A2969 RMK A01 T01401038  RH  029%=      5-min Rain = 0
KVE1 090202Z 15009KT 14/M04 A2969 RMK A01 T01391040  RH  029%=      5-min Rain = 0
KVE1 090203Z 14008KT 14/M04 A2969 RMK A01 T01391041  RH  028%=      5-min Rain = 0
KVE1 090204Z 14007KT 14/M04 A2969 RMK A01 T01401043  RH  028%=      5-min Rain = 0
KVE1 090205Z 15007KT 14/M04 A2969 RMK A01 T01411042  RH  028%=      5-min Rain = 0
KVE1 090206Z 15008KT 14/M04 A2969 RMK A01 T01411042  RH  028%=      5-min Rain = 0
KVE1 090207Z 15007KT 14/M04 A2969 RMK A01 T01401043  RH  028%=      5-min Rain = 0
KVE1 090208Z 15008KT 14/M05 A2969 RMK A01 T01391045  RH  028%=      5-min Rain = 0
KVE1 090209Z 16008KT 14/M05 A2969 RMK A01 T01391049  RH  027%=      5-min Rain = 0
KVE1 090210Z 15008KT 14/M05 A2969 RMK A01 T01401050  RH  026%=      5-min Rain = 0
KVE1 090211Z 15007KT 14/M05 A2969 RMK A01 T01401051  RH  026%=      5-min Rain = 0
KVE1 090212Z 15007KT 14/M05 A2969 RMK A01 T01411054  RH  025%=      5-min Rain = 0
KVE1 090213Z 15006KT 14/M06 A2969 RMK A01 T01431055  RH  025%=      5-min Rain = 0
KVE1 090214Z 15006KT 14/M05 A2969 RMK A01 T01441053  RH  025%=      5-min Rain = 0
KVE1 090215Z 15006KT 14/M06 A2969 RMK A01 T01441056  RH  025%=      5-min Rain = 0
KVE1 090216Z 15007KT 15/M06 A2969 RMK A01 T01461056  RH  024%=      5-min Rain = 0
KVE1 090217Z 15007KT 15/M06 A2969 RMK A01 T01481061  RH  023%=      5-min Rain = 0
KVE1 090218Z 14007KT 15/M06 A2969 RMK A01 T01501063  RH  022%=      5-min Rain = 0
KVE1 090219Z 14007KT 16/M06 A2969 RMK A01 T01551064  RH  022%=      5-min Rain = 0
KVE1 090220Z 14006KT 16/M06 A2969 RMK A01 T01561060  RH  022%=      5-min Rain = 0
KVE1 090221Z 13007KT 16/M07 A2969 RMK A01 T01571065  RH  021%=      5-min Rain = 0
KVE1 090222Z 14007KT 16/M07 A2969 RMK A01 T01611069  RH  020%=      5-min Rain = 0
KVE1 090223Z 13007KT 16/M06 A2969 RMK A01 T01631063  RH  021%=      5-min Rain = 0
KVE1 090224Z 13007KT 16/M06 A2969 RMK A01 T01611059  RH  022%=      5-min Rain = 0
KVE1 090225Z 13007KT 16/M06 A2969 RMK A01 T01591057  RH  022%=      5-min Rain = 0
KVE1 090226Z 12006KT 16/M06 A2969 RMK A01 T01571061  RH  022%=      5-min Rain = 0
KVE1 090227Z 12006KT 16/M06 A2969 RMK A01 T01591061  RH  021%=      5-min Rain = 0
KVE1 090228Z 12006KT 16/M06 A2969 RMK A01 T01601062  RH  021%=      5-min Rain = 0
KVE1 090229Z 12006KT 16/M06 A2969 RMK A01 T01601055  RH  022%=      5-min Rain = 0
KVE1 090230Z 12007KT 16/M05 A2969 RMK A01 T01551050  RH  024%=      5-min Rain = 0
KVE1 090231Z 12007KT 15/M05 A2969 RMK A01 T01501049  RH  025%=      5-min Rain = 0
KVE1 090232Z 13008KT 14/M04 A2969 RMK A01 T01441044  RH  027%=      5-min Rain = 0
KVE1 090233Z 13009KT 14/M04 A2969 RMK A01 T01371043  RH  028%=      5-min Rain = 0
KVE1 090234Z 13009KT 13/M04 A2969 RMK A01 T01321043  RH  029%=      5-min Rain = 0
KVE1 090235Z 13009KT 13/M04 A2969 RMK A01 T01301043  RH  030%=      5-min Rain = 0
KVE1 090236Z 13010KT 13/M04 A2969 RMK A01 T01281042  RH  030%=      5-min Rain = 0
KVE1 090237Z 13009KT 13/M05 A2969 RMK A01 T01281045  RH  030%=      5-min Rain = 0
KVE1 090238Z 13008KT 13/M05 A2969 RMK A01 T01301046  RH  029%=      5-min Rain = 0
KVE1 090239Z 13008KT 13/M05 A2969 RMK A01 T01321047  RH  028%=      5-min Rain = 0
KVE1 090240Z 13009KT 13/M05 A2969 RMK A01 T01341047  RH  028%=      5-min Rain = 0
KVE1 090241Z 13010KT 13/M05 A2969 RMK A01 T01341045  RH  028%=      5-min Rain = 0
KVE1 090242Z 13010KT 13/M04 A2969 RMK A01 T01331044  RH  029%=      5-min Rain = 0
KVE1 090243Z 13010KT 13/M05 A2969 RMK A01 T01321046  RH  029%=      5-min Rain = 0
KVE1 090244Z 13011KT 14/M05 A2969 RMK A01 T01351046  RH  028%=      5-min Rain = 0
KVE1 090245Z 13011KT 14/M05 A2969 RMK A01 T01381046  RH  028%=      5-min Rain = 0
KVE1 090246Z 13010KT 14/M05 A2969 RMK A01 T01391046  RH  027%=      5-min Rain = 0
KVE1 090247Z 13010KT 14/M04 A2969 RMK A01 T01401043  RH  028%=      5-min Rain = 0
KVE1 090248Z 13009KT 14/M05 A2969 RMK A01 T01391045  RH  027%=      5-min Rain = 0
KVE1 090249Z 13007KT 14/M05 A2969 RMK A01 T01401045  RH  027%=      5-min Rain = 0
KVE1 090250Z 13008KT 14/M04 A2969 RMK A01 T01401044  RH  028%=      5-min Rain = 0
KVE1 090251Z 13007KT 14/M04 A2969 RMK A01 T01391041  RH  028%=      5-min Rain = 0
KVE1 090252Z 13006KT 14/M04 A2969 RMK A01 T01381040  RH  029%=      5-min Rain = 0
KVE1 090253Z 13007KT 14/M04 A2969 RMK A01 T01361039  RH  029%=      5-min Rain = 0
KVE1 090254Z 13006KT 14/M04 A2969 RMK A01 T01351038  RH  030%=      5-min Rain = 0
KVE1 090255Z 13007KT 13/M04 A2969 RMK A01 T01341036  RH  031%=      5-min Rain = 0
KVE1 090256Z 13007KT 13/M04 A2969 RMK A01 T01311035  RH  031%=      5-min Rain = 0
KVE1 090257Z 13007KT 13/M03 A2969 RMK A01 T01301033  RH  032%=      5-min Rain = 0
KVE1 090258Z 13006KT 13/M03 A2969 RMK A01 T01271032  RH  033%=      5-min Rain = 0
KVE1 090259Z 14005KT 13/M04 A2969 RMK A01 T01271038  RH  032%=      5-min Rain = 0
KVE1 090300Z 13006KT 13/M04 A2969 RMK A01 T01291041  RH  030%=      5-min Rain = 0
KVE1 090301Z 14005KT 13/M04 A2969 RMK A01 T01311044  RH  029%=      5-min Rain = 0
KVE1 090302Z 12007KT 13/M04 A2969 RMK A01 T01331044  RH  029%=      5-min Rain = 0
KVE1 090303Z 12007KT 14/M04 A2969 RMK A01 T01351036  RH  030%=      5-min Rain = 0
KVE1 090304Z 12008KT 13/M03 A2969 RMK A01 T01281029  RH  033%=      5-min Rain = 0
KVE1 090305Z 12008KT 12/M03 A2969 RMK A01 T01231029  RH  035%=      5-min Rain = 0
KVE1 090306Z 12008KT 12/M03 A2969 RMK A01 T01201030  RH  035%=      5-min Rain = 0
KVE1 090307Z 12009KT 12/M03 A2969 RMK A01 T01201034  RH  034%=      5-min Rain = 0
KVE1 090308Z 12009KT 13/M04 A2969 RMK A01 T01261035  RH  032%=      5-min Rain = 0
KVE1 090309Z 12010KT 13/M03 A2969 RMK A01 T01281033  RH  032%=      5-min Rain = 0
KVE1 090310Z 11011KT 13/M04 A2969 RMK A01 T01301037  RH  031%=      5-min Rain = 0
KVE1 090311Z 12012KT 13/M04 A2969 RMK A01 T01311037  RH  031%=      5-min Rain = 0
KVE1 090312Z 12011KT 13/M04 A2969 RMK A01 T01321036  RH  031%=      5-min Rain = 0
KVE1 090313Z 11012KT 13/M04 A2969 RMK A01 T01321040  RH  030%=      5-min Rain = 0
KVE1 090314Z 11011KT 14/M04 A2969 RMK A01 T01351043  RH  029%=      5-min Rain = 0
KVE1 090315Z 11012KT 14/M05 A2969 RMK A01 T01391045  RH  027%=      5-min Rain = 0
KVE1 090316Z 11013KT 14/M05 A2969 RMK A01 T01431047  RH  027%=      5-min Rain = 0
KVE1 090317Z 12013KT 15/M05 A2969 RMK A01 T01481053  RH  024%=      5-min Rain = 0
KVE1 090318Z 12013KT 16/M06 A2969 RMK A01 T01571058  RH  022%=      5-min Rain = 0
KVE1 090319Z 12012KT 16/M06 A2969 RMK A01 T01611057  RH  022%=      5-min Rain = 0
KVE1 090320Z 12010KT 16/M05 A2969 RMK A01 T01601054  RH  022%=      5-min Rain = 0
KVE1 090321Z 12011KT 16/M05 A2969 RMK A01 T01571053  RH  023%=      5-min Rain = 0
KVE1 090322Z 13012KT 16/M05 A2969 RMK A01 T01551054  RH  023%=      5-min Rain = 0
KVE1 090323Z 12012KT 15/M05 A2969 RMK A01 T01541053  RH  024%=      5-min Rain = 0
KVE1 090324Z 13012KT 15/M05 A2969 RMK A01 T01531054  RH  024%=      5-min Rain = 0
KVE1 090325Z 13012KT 15/M05 A2969 RMK A01 T01531054  RH  024%=      5-min Rain = 0
KVE1 090326Z 12011KT 15/M05 A2969 RMK A01 T01541054  RH  023%=      5-min Rain = 0
KVE1 090327Z 12011KT 15/M05 A2969 RMK A01 T01531050  RH  024%=      5-min Rain = 0
KVE1 090328Z 12010KT 15/M05 A2969 RMK A01 T01491048  RH  025%=      5-min Rain = 0
KVE1 090329Z 12011KT 15/M05 A2969 RMK A01 T01491052  RH  025%=      5-min Rain = 0
KVE1 090330Z 12010KT 15/M05 A2969 RMK A01 T01501047  RH  025%=      5-min Rain = 0
KVE1 090331Z 12010KT 15/M05 A2969 RMK A01 T01461046  RH  026%=      5-min Rain = 0
KVE1 090332Z 12010KT 14/M05 A2969 RMK A01 T01441047  RH  026%=      5-min Rain = 0
KVE1 090333Z 12010KT 14/M05 A2969 RMK A01 T01421047  RH  027%=      5-min Rain = 0
KVE1 090334Z 13010KT 14/M05 A2969 RMK A01 T01441050  RH  026%=      5-min Rain = 0
KVE1 090335Z 13010KT 14/M05 A2969 RMK A01 T01441046  RH  026%=      5-min Rain = 0
KVE1 090336Z 13010KT 14/M05 A2969 RMK A01 T01401045  RH  028%=      5-min Rain = 0
KVE1 090337Z 13010KT 14/M04 A2969 RMK A01 T01351044  RH  028%=      5-min Rain = 0
KVE1 090338Z 13010KT 13/M05 A2969 RMK A01 T01331048  RH  028%=      5-min Rain = 0
KVE1 090339Z 14011KT 13/M05 A2969 RMK A01 T01341049  RH  028%=      5-min Rain = 0
KVE1 090340Z 13010KT 14/M05 A2968 RMK A01 T01351050  RH  027%=      5-min Rain = 0
KVE1 090341Z 13010KT 14/M05 A2968 RMK A01 T01361050  RH  027%=      5-min Rain = 0
KVE1 090342Z 13011KT 14/M05 A2968 RMK A01 T01361050  RH  027%=      5-min Rain = 0
KVE1 090343Z 13012KT 14/M05 A2968 RMK A01 T01371051  RH  027%=      5-min Rain = 0
KVE1 090344Z 13012KT 14/M05 A2968 RMK A01 T01371050  RH  027%=      5-min Rain = 0
KVE1 090345Z 13012KT 14/M05 A2968 RMK A01 T01371050  RH  027%=      5-min Rain = 0
KVE1 090346Z 13012KT 14/M05 A2968 RMK A01 T01371049  RH  027%=      5-min Rain = 0
KVE1 090347Z 13012KT 14/M05 A2968 RMK A01 T01381048  RH  027%=      5-min Rain = 0
KVE1 090348Z 14012KT 14/M05 A2968 RMK A01 T01381047  RH  027%=      5-min Rain = 0
KVE1 090349Z 14012KT 14/M05 A2968 RMK A01 T01381047  RH  027%=      5-min Rain = 0
KVE1 090350Z 14012KT 14/M05 A2968 RMK A01 T01391048  RH  027%=      5-min Rain = 0
KVE1 090351Z 14012KT 14/M05 A2968 RMK A01 T01401048  RH  027%=      5-min Rain = 0
KVE1 090352Z 14013KT 14/M05 A2968 RMK A01 T01421048  RH  026%=      5-min Rain = 0
KVE1 090353Z 14012KT 14/M05 A2968 RMK A01 T01431049  RH  026%=      5-min Rain = 0
KVE1 090354Z 14012KT 14/M05 A2968 RMK A01 T01441049  RH  026%=      5-min Rain = 0
KVE1 090355Z 14013KT 14/M05 A2968 RMK A01 T01441049  RH  026%=      5-min Rain = 0
KVE1 090356Z 14012KT 14/M05 A2968 RMK A01 T01431049  RH  026%=      5-min Rain = 0
KVE1 090357Z 14012KT 14/M05 A2968 RMK A01 T01441048  RH  026%=      5-min Rain = 0
KVE1 090358Z 14012KT 14/M05 A2968 RMK A01 T01441048  RH  026%=      5-min Rain = 0
KVE1 090359Z 14012KT 14/M05 A2968 RMK A01 T01441047  RH  026%=      5-min Rain = 0
KVE1 090400Z 14012KT 14/M05 A2968 RMK A01 T01431046  RH  027%=      5-min Rain = 0
KVE1 090401Z 14012KT 14/M05 A2968 RMK A01 T01421046  RH  027%=      5-min Rain = 0
KVE1 090402Z 14012KT 14/M05 A2968 RMK A01 T01411046  RH  027%=      5-min Rain = 0
KVE1 090403Z 14013KT 14/M05 A2968 RMK A01 T01391045  RH  028%=      5-min Rain = 0
KVE1 090404Z 14013KT 14/M05 A2968 RMK A01 T01391045  RH  028%=      5-min Rain = 0
KVE1 090405Z 14013KT 14/M05 A2968 RMK A01 T01391045  RH  028%=      5-min Rain = 0
KVE1 090406Z 14013KT 14/M05 A2968 RMK A01 T01391046  RH  027%=      5-min Rain = 0
KVE1 090407Z 14013KT 14/M05 A2968 RMK A01 T01401046  RH  027%=      5-min Rain = 0
KVE1 090408Z 14013KT 14/M05 A2968 RMK A01 T01421047  RH  027%=      5-min Rain = 0
KVE1 090409Z 14013KT 14/M05 A2968 RMK A01 T01431047  RH  026%=      5-min Rain = 0
KVE1 090410Z 14012KT 14/M05 A2968 RMK A01 T01431048  RH  026%=      5-min Rain = 0
KVE1 090411Z 14013KT 14/M05 A2968 RMK A01 T01421047  RH  027%=      5-min Rain = 0
KVE1 090412Z 14013KT 14/M05 A2968 RMK A01 T01411047  RH  027%=      5-min Rain = 0
KVE1 090413Z 14013KT 14/M05 A2968 RMK A01 T01411047  RH  027%=      5-min Rain = 0
KVE1 090414Z 15013KT 14/M05 A2968 RMK A01 T01411047  RH  027%=      5-min Rain = 0
KVE1 090415Z 15013KT 14/M05 A2968 RMK A01 T01391048  RH  027%=      5-min Rain = 0
KVE1 090416Z 15013KT 14/M05 A2968 RMK A01 T01371047  RH  028%=      5-min Rain = 0
KVE1 090417Z 14012KT 14/M05 A2967 RMK A01 T01361047  RH  028%=      5-min Rain = 0
KVE1 090418Z 14011KT 14/M05 A2967 RMK A01 T01351046  RH  028%=      5-min Rain = 0
KVE1 090419Z 15011KT 13/M05 A2967 RMK A01 T01341047  RH  028%=      5-min Rain = 0
KVE1 090420Z 15012KT 13/M05 A2967 RMK A01 T01321047  RH  028%=      5-min Rain = 0
KVE1 090421Z 14011KT 13/M05 A2967 RMK A01 T01321046  RH  029%=      5-min Rain = 0
KVE1 090422Z 15011KT 13/M05 A2967 RMK A01 T01341045  RH  029%=      5-min Rain = 0
KVE1 090423Z 14011KT 14/M05 A2967 RMK A01 T01351045  RH  028%=      5-min Rain = 0
KVE1 090424Z 14011KT 13/M05 A2967 RMK A01 T01341045  RH  028%=      5-min Rain = 0
KVE1 090425Z 14012KT 13/M05 A2967 RMK A01 T01341046  RH  028%=      5-min Rain = 0
KVE1 090426Z 14012KT 13/M05 A2967 RMK A01 T01331046  RH  028%=      5-min Rain = 0
KVE1 090427Z 14012KT 13/M05 A2967 RMK A01 T01331046  RH  029%=      5-min Rain = 0
KVE1 090428Z 14012KT 13/M05 A2967 RMK A01 T01311045  RH  029%=      5-min Rain = 0
KVE1 090429Z 14011KT 13/M05 A2967 RMK A01 T01301045  RH  029%=      5-min Rain = 0
KVE1 090430Z 15011KT 13/M05 A2967 RMK A01 T01301045  RH  029%=      5-min Rain = 0
KVE1 090431Z 15010KT 13/M05 A2967 RMK A01 T01291045  RH  029%=      5-min Rain = 0
KVE1 090432Z 15009KT 13/M05 A2967 RMK A01 T01291045  RH  030%=      5-min Rain = 0
KVE1 090433Z 14010KT 13/M05 A2967 RMK A01 T01281045  RH  030%=      5-min Rain = 0
KVE1 090434Z 14010KT 13/M04 A2967 RMK A01 T01271044  RH  030%=      5-min Rain = 0
KVE1 090435Z 14010KT 13/M05 A2967 RMK A01 T01271045  RH  030%=      5-min Rain = 0
KVE1 090436Z 14009KT 13/M04 A2967 RMK A01 T01261044  RH  030%=      5-min Rain = 0
KVE1 090437Z 14010KT 13/M04 A2967 RMK A01 T01251044  RH  030%=      5-min Rain = 0
KVE1 090438Z 15009KT 12/M04 A2967 RMK A01 T01241044  RH  031%=      5-min Rain = 0
KVE1 090439Z 15009KT 12/M04 A2967 RMK A01 T01231044  RH  031%=      5-min Rain = 0
KVE1 090440Z 15009KT 12/M04 A2967 RMK A01 T01231044  RH  031%=      5-min Rain = 0
KVE1 090441Z 15008KT 12/M04 A2967 RMK A01 T01231044  RH  031%=      5-min Rain = 0
KVE1 090442Z 15009KT 12/M04 A2967 RMK A01 T01231044  RH  031%=      5-min Rain = 0
KVE1 090443Z 15008KT 12/M04 A2967 RMK A01 T01241044  RH  031%=      5-min Rain = 0
KVE1 090444Z 15007KT 12/M04 A2967 RMK A01 T01231043  RH  031%=      5-min Rain = 0
KVE1 090445Z 15008KT 12/M04 A2967 RMK A01 T01211042  RH  032%=      5-min Rain = 0
KVE1 090446Z 14007KT 12/M04 A2967 RMK A01 T01191042  RH  032%=      5-min Rain = 0
KVE1 090447Z 14007KT 12/M04 A2967 RMK A01 T01191043  RH  032%=      5-min Rain = 0
KVE1 090448Z 14007KT 12/M04 A2966 RMK A01 T01181041  RH  033%=      5-min Rain = 0
KVE1 090449Z 14006KT 12/M04 A2966 RMK A01 T01161040  RH  033%=      5-min Rain = 0
KVE1 090450Z 13006KT 11/M04 A2966 RMK A01 T01141041  RH  034%=      5-min Rain = 0
KVE1 090451Z 13006KT 11/M04 A2966 RMK A01 T01131040  RH  034%=      5-min Rain = 0
KVE1 090452Z 13005KT 11/M04 A2967 RMK A01 T01111039  RH  035%=      5-min Rain = 0
KVE1 090453Z 13005KT 11/M04 A2967 RMK A01 T01101039  RH  035%=      5-min Rain = 0
KVE1 090454Z 14004KT 11/M04 A2967 RMK A01 T01091039  RH  035%=      5-min Rain = 0
KVE1 090455Z 14003KT 11/M04 A2967 RMK A01 T01071039  RH  036%=      5-min Rain = 0
KVE1 090456Z 14004KT 10/M04 A2967 RMK A01 T01041041  RH  036%=      5-min Rain = 0
KVE1 090457Z 14004KT 10/M04 A2967 RMK A01 T01041041  RH  036%=      5-min Rain = 0
KVE1 090458Z 14005KT 11/M04 A2966 RMK A01 T01051041  RH  036%=      5-min Rain = 0
KVE1 090459Z 15004KT 11/M04 A2966 RMK A01 T01071041  RH  035%=      5-min Rain = 0

Page generated in 0.0653 seconds.